Time,TemperatureF,DewpointF,PressureIn,WindDirection,WindDirectionDegrees,WindSpeedMPH,WindSpeedGustMPH,Humidity,HourlyPrecipIn,Conditions,Clouds,dailyrainin,SoftwareType,DateUTC
2013-12-01 00:00:00,28.8,15.1,29.18,North,357,0.0,0.0,56,0.00,,,0.00,VWS V14.00,2013-12-01 05:00:00,
2013-12-01 00:01:00,28.8,15.1,29.18,North,357,0.0,0.0,56,0.00,,,0.00,VWS V14.00,2013-12-01 05:01:00,
2013-12-01 00:02:00,28.8,15.1,29.18,North,357,0.0,0.0,56,0.00,,,0.00,VWS V14.00,2013-12-01 05:02:00,
2013-12-01 00:03:00,28.8,15.1,29.18,North,357,0.0,0.0,56,0.00,,,0.00,VWS V14.00,2013-12-01 05:03:00,
2013-12-01 00:04:00,28.6,14.9,29.18,North,357,0.0,0.0,56,0.00,,,0.00,VWS V14.00,2013-12-01 05:04:00,
2013-12-01 00:05:00,28.6,14.9,29.18,North,357,0.0,0.0,56,0.00,,,0.00,VWS V14.00,2013-12-01 05:05:00,
2013-12-01 00:06:00,28.8,15.1,29.18,North,357,0.0,0.0,56,0.00,,,0.00,VWS V14.00,2013-12-01 05:06:00,
2013-12-01 00:07:00,28.6,14.9,29.18,North,357,0.0,0.0,56,0.00,,,0.00,VWS V14.00,2013-12-01 05:07:00,
2013-12-01 00:08:00,28.6,14.9,29.18,North,357,0.0,0.0,56,0.00,,,0.00,VWS V14.00,2013-12-01 05:08:00,
2013-12-01 00:09:00,28.6,14.9,29.18,North,357,0.0,0.0,56,0.00,,,0.00,VWS V14.00,2013-12-01 05:09:00,
2013-12-01 00:10:00,28.6,14.9,29.18,North,357,0.0,0.0,56,0.00,,,0.00,VWS V14.00,2013-12-01 05:10:00,
2013-12-01 00:11:00,28.6,14.9,29.18,North,357,0.0,0.0,56,0.00,,,0.00,VWS V14.00,2013-12-01 05:11:00,
2013-12-01 00:12:00,28.6,14.9,29.18,North,357,0.0,0.0,56,0.00,,,0.00,VWS V14.00,2013-12-01 05:12:00,
2013-12-01 00:13:00,28.4,14.7,29.18,North,357,0.0,0.0,56,0.00,,,0.00,VWS V14.00,2013-12-01 05:13:00,
2013-12-01 00:14:00,28.4,14.7,29.18,North,357,0.0,0.0,56,0.00,,,0.00,VWS V14.00,2013-12-01 05:14:00,
2013-12-01 00:15:00,28.4,14.7,29.18,North,357,0.0,0.0,56,0.00,,,0.00,VWS V14.00,2013-12-01 05:15:00,
2013-12-01 00:16:00,28.6,14.9,29.18,North,357,0.0,0.0,56,0.00,,,0.00,VWS V14.00,2013-12-01 05:16:00,
2013-12-01 00:17:00,28.4,14.7,29.18,North,357,0.0,0.0,56,0.00,,,0.00,VWS V14.00,2013-12-01 05:17:00,
2013-12-01 00:18:00,28.4,14.7,29.18,North,357,0.0,0.0,56,0.00,,,0.00,VWS V14.00,2013-12-01 05:18:00,
2013-12-01 00:19:00,28.4,14.7,29.18,North,357,0.0,0.0,56,0.00,,,0.00,VWS V14.00,2013-12-01 05:19:00,
2013-12-01 00:20:00,28.2,14.6,29.18,North,357,0.0,0.0,56,0.00,,,0.00,VWS V14.00,2013-12-01 05:20:00,
2013-12-01 00:21:00,28.4,14.7,29.18,North,357,0.0,0.0,56,0.00,,,0.00,VWS V14.00,2013-12-01 05:21:00,
2013-12-01 00:22:00,28.2,14.6,29.18,North,357,0.0,0.0,56,0.00,,,0.00,VWS V14.00,2013-12-01 05:22:00,
2013-12-01 00:23:00,28.2,14.6,29.18,North,357,0.0,0.0,56,0.00,,,0.00,VWS V14.00,2013-12-01 05:23:00,
2013-12-01 00:24:00,28.2,14.6,29.18,North,357,0.0,0.0,56,0.00,,,0.00,VWS V14.00,2013-12-01 05:24:00,
2013-12-01 00:25:00,28.2,14.6,29.18,North,357,0.0,0.0,56,0.00,,,0.00,VWS V14.00,2013-12-01 05:25:00,
2013-12-01 00:26:00,28.2,14.6,29.18,North,357,0.0,0.0,56,0.00,,,0.00,VWS V14.00,2013-12-01 05:26:00,
2013-12-01 00:27:00,28.2,14.6,29.18,North,357,0.0,0.0,56,0.00,,,0.00,VWS V14.00,2013-12-01 05:27:00,
2013-12-01 00:28:00,28.2,14.6,29.18,North,357,0.0,0.0,56,0.00,,,0.00,VWS V14.00,2013-12-01 05:28:00,
2013-12-01 00:29:00,28.2,14.6,29.18,North,357,0.0,0.0,56,0.00,,,0.00,VWS V14.00,2013-12-01 05:29:00,
2013-12-01 00:30:00,28.2,14.6,29.18,North,357,0.0,0.0,56,0.00,,,0.00,VWS V14.00,2013-12-01 05:30:00,
2013-12-01 00:31:00,28.2,14.6,29.18,North,357,0.0,0.0,56,0.00,,,0.00,VWS V14.00,2013-12-01 05:31:00,
2013-12-01 00:32:00,28.2,14.6,29.18,North,357,0.0,0.0,56,0.00,,,0.00,VWS V14.00,2013-12-01 05:32:00,
2013-12-01 00:33:00,28.2,14.6,29.18,North,357,0.0,0.0,56,0.00,,,0.00,VWS V14.00,2013-12-01 05:33:00,
2013-12-01 00:34:00,28.0,14.4,29.18,North,357,0.0,0.0,56,0.00,,,0.00,VWS V14.00,2013-12-01 05:34:00,
2013-12-01 00:35:00,28.0,14.4,29.18,North,357,0.0,0.0,56,0.00,,,0.00,VWS V14.00,2013-12-01 05:35:00,
2013-12-01 00:36:00,28.2,14.6,29.18,North,357,0.0,0.0,56,0.00,,,0.00,VWS V14.00,2013-12-01 05:36:00,
2013-12-01 00:37:00,28.0,14.4,29.18,North,357,0.0,0.0,56,0.00,,,0.00,VWS V14.00,2013-12-01 05:37:00,
2013-12-01 00:38:00,28.0,14.4,29.15,North,357,0.0,0.0,56,0.00,,,0.00,VWS V14.00,2013-12-01 05:38:00,
2013-12-01 00:39:00,28.0,14.4,29.15,North,357,0.0,0.0,56,0.00,,,0.00,VWS V14.00,2013-12-01 05:39:00,
2013-12-01 00:40:00,28.0,14.4,29.15,North,357,0.0,0.0,56,0.00,,,0.00,VWS V14.00,2013-12-01 05:40:00,
2013-12-01 00:41:00,28.0,14.4,29.18,North,357,0.0,0.0,56,0.00,,,0.00,VWS V14.00,2013-12-01 05:41:00,
2013-12-01 00:42:00,28.0,14.4,29.15,North,357,0.0,0.0,56,0.00,,,0.00,VWS V14.00,2013-12-01 05:42:00,
2013-12-01 00:43:00,28.0,14.4,29.15,North,357,0.0,0.0,56,0.00,,,0.00,VWS V14.00,2013-12-01 05:43:00,
2013-12-01 00:44:00,27.9,14.2,29.15,North,357,0.0,0.0,56,0.00,,,0.00,VWS V14.00,2013-12-01 05:44:00,
2013-12-01 00:45:00,27.9,14.2,29.15,North,357,0.0,0.0,56,0.00,,,0.00,VWS V14.00,2013-12-01 05:45:00,
2013-12-01 00:46:00,28.0,14.4,29.15,North,357,0.0,0.0,56,0.00,,,0.00,VWS V14.00,2013-12-01 05:46:00,
2013-12-01 00:47:00,27.9,14.2,29.15,North,357,0.0,0.0,56,0.00,,,0.00,VWS V14.00,2013-12-01 05:47:00,
2013-12-01 00:48:00,27.9,14.2,29.15,North,357,0.0,0.0,56,0.00,,,0.00,VWS V14.00,2013-12-01 05:48:00,
2013-12-01 00:49:00,27.9,14.2,29.15,North,357,0.0,0.0,56,0.00,,,0.00,VWS V14.00,2013-12-01 05:49:00,
2013-12-01 00:50:00,27.9,14.2,29.15,North,357,0.0,0.0,56,0.00,,,0.00,VWS V14.00,2013-12-01 05:50:00,
2013-12-01 00:51:00,27.9,14.2,29.15,North,357,0.0,0.0,56,0.00,,,0.00,VWS V14.00,2013-12-01 05:51:00,
2013-12-01 00:52:00,27.9,14.6,29.15,North,357,0.0,0.0,57,0.00,,,0.00,VWS V14.00,2013-12-01 05:52:00,
2013-12-01 00:53:00,27.9,14.6,29.15,North,357,0.0,0.0,57,0.00,,,0.00,VWS V14.00,2013-12-01 05:53:00,
2013-12-01 00:54:00,27.9,14.6,29.15,North,357,0.0,0.0,57,0.00,,,0.00,VWS V14.00,2013-12-01 05:54:00,
2013-12-01 00:55:00,27.9,14.6,29.15,North,357,0.0,0.0,57,0.00,,,0.00,VWS V14.00,2013-12-01 05:55:00,
2013-12-01 00:56:00,27.9,14.6,29.15,North,357,0.0,0.0,57,0.00,,,0.00,VWS V14.00,2013-12-01 05:56:00,
2013-12-01 00:57:00,27.9,14.6,29.15,North,357,0.0,0.0,57,0.00,,,0.00,VWS V14.00,2013-12-01 05:57:00,
2013-12-01 00:58:00,27.9,14.6,29.15,North,357,0.0,0.0,57,0.00,,,0.00,VWS V14.00,2013-12-01 05:58:00,
2013-12-01 00:59:00,27.7,14.4,29.15,North,357,0.0,0.0,57,0.00,,,0.00,VWS V14.00,2013-12-01 05:59:00,
2013-12-01 01:00:00,27.7,14.4,29.15,North,357,0.0,0.0,57,0.00,,,0.00,VWS V14.00,2013-12-01 06:00:00,
2013-12-01 01:01:00,27.9,14.6,29.15,North,357,0.0,0.0,57,0.00,,,0.00,VWS V14.00,2013-12-01 06:01:00,
2013-12-01 01:02:00,27.7,14.4,29.15,North,357,0.0,0.0,57,0.00,,,0.00,VWS V14.00,2013-12-01 06:02:00,
2013-12-01 01:03:00,27.7,14.4,29.15,North,357,0.0,0.0,57,0.00,,,0.00,VWS V14.00,2013-12-01 06:03:00,
2013-12-01 01:04:00,27.7,14.4,29.15,North,357,0.0,0.0,57,0.00,,,0.00,VWS V14.00,2013-12-01 06:04:00,
2013-12-01 01:05:00,27.7,14.4,29.15,North,357,0.0,0.0,57,0.00,,,0.00,VWS V14.00,2013-12-01 06:05:00,
2013-12-01 01:06:00,27.7,14.4,29.15,North,357,0.0,0.0,57,0.00,,,0.00,VWS V14.00,2013-12-01 06:06:00,
2013-12-01 01:07:00,27.7,14.4,29.15,North,357,0.0,0.0,57,0.00,,,0.00,VWS V14.00,2013-12-01 06:07:00,
2013-12-01 01:08:00,27.9,14.6,29.15,North,357,0.0,0.0,57,0.00,,,0.00,VWS V14.00,2013-12-01 06:08:00,
2013-12-01 01:09:00,27.9,14.6,29.15,North,357,0.0,0.0,57,0.00,,,0.00,VWS V14.00,2013-12-01 06:09:00,
2013-12-01 01:10:00,27.9,14.6,29.15,North,357,0.0,0.0,57,0.00,,,0.00,VWS V14.00,2013-12-01 06:10:00,
2013-12-01 01:11:00,27.7,14.4,29.15,North,357,0.0,0.0,57,0.00,,,0.00,VWS V14.00,2013-12-01 06:11:00,
2013-12-01 01:12:00,27.9,14.6,29.15,North,357,0.0,0.0,57,0.00,,,0.00,VWS V14.00,2013-12-01 06:12:00,
2013-12-01 01:13:00,27.9,14.6,29.15,North,357,0.0,0.0,57,0.00,,,0.00,VWS V14.00,2013-12-01 06:13:00,
2013-12-01 01:14:00,27.9,14.6,29.15,North,357,0.0,0.0,57,0.00,,,0.00,VWS V14.00,2013-12-01 06:14:00,
2013-12-01 01:15:00,27.9,14.6,29.15,North,357,0.0,0.0,57,0.00,,,0.00,VWS V14.00,2013-12-01 06:15:00,
2013-12-01 01:16:00,27.9,14.6,29.15,North,357,0.0,0.0,57,0.00,,,0.00,VWS V14.00,2013-12-01 06:16:00,
2013-12-01 01:17:00,27.7,14.4,29.15,North,357,0.0,0.0,57,0.00,,,0.00,VWS V14.00,2013-12-01 06:17:00,
2013-12-01 01:18:00,27.7,14.4,29.15,North,357,0.0,0.0,57,0.00,,,0.00,VWS V14.00,2013-12-01 06:18:00,
2013-12-01 01:19:00,27.7,14.4,29.15,North,357,0.0,0.0,57,0.00,,,0.00,VWS V14.00,2013-12-01 06:19:00,
2013-12-01 01:20:00,27.7,14.4,29.15,North,357,0.0,0.0,57,0.00,,,0.00,VWS V14.00,2013-12-01 06:20:00,
2013-12-01 01:21:00,27.7,14.4,29.15,North,357,0.0,0.0,57,0.00,,,0.00,VWS V14.00,2013-12-01 06:21:00,
2013-12-01 01:22:00,27.7,14.4,29.15,North,357,0.0,0.0,57,0.00,,,0.00,VWS V14.00,2013-12-01 06:22:00,
2013-12-01 01:23:00,27.7,14.4,29.15,North,357,0.0,0.0,57,0.00,,,0.00,VWS V14.00,2013-12-01 06:23:00,
2013-12-01 01:24:00,27.7,14.4,29.15,North,357,0.0,0.0,57,0.00,,,0.00,VWS V14.00,2013-12-01 06:24:00,
2013-12-01 01:25:00,27.9,14.6,29.15,North,357,0.0,0.0,57,0.00,,,0.00,VWS V14.00,2013-12-01 06:25:00,
2013-12-01 01:26:00,27.7,14.4,29.15,North,357,0.0,0.0,57,0.00,,,0.00,VWS V14.00,2013-12-01 06:26:00,
2013-12-01 01:27:00,27.9,14.6,29.15,North,357,0.0,0.0,57,0.00,,,0.00,VWS V14.00,2013-12-01 06:27:00,
2013-12-01 01:28:00,27.9,14.6,29.15,North,357,0.0,0.0,57,0.00,,,0.00,VWS V14.00,2013-12-01 06:28:00,
2013-12-01 01:29:00,27.9,14.6,29.15,North,357,0.0,0.0,57,0.00,,,0.00,VWS V14.00,2013-12-01 06:29:00,
2013-12-01 01:30:00,27.9,14.6,29.15,North,357,0.0,0.0,57,0.00,,,0.00,VWS V14.00,2013-12-01 06:30:00,
2013-12-01 01:31:00,27.9,14.6,29.15,North,357,0.0,0.0,57,0.00,,,0.00,VWS V14.00,2013-12-01 06:31:00,
2013-12-01 01:32:00,27.9,14.6,29.15,North,357,0.0,0.0,57,0.00,,,0.00,VWS V14.00,2013-12-01 06:32:00,
2013-12-01 01:33:00,27.9,14.6,29.15,North,357,0.0,0.0,57,0.00,,,0.00,VWS V14.00,2013-12-01 06:33:00,
2013-12-01 01:34:00,27.7,14.4,29.15,North,357,0.0,0.0,57,0.00,,,0.00,VWS V14.00,2013-12-01 06:34:00,
2013-12-01 01:35:00,27.7,14.4,29.15,North,357,0.0,0.0,57,0.00,,,0.00,VWS V14.00,2013-12-01 06:35:00,
2013-12-01 01:36:00,27.9,14.6,29.15,North,357,0.0,0.0,57,0.00,,,0.00,VWS V14.00,2013-12-01 06:36:00,
2013-12-01 01:37:00,27.7,14.4,29.15,North,357,0.0,0.0,57,0.00,,,0.00,VWS V14.00,2013-12-01 06:37:00,
2013-12-01 01:38:00,27.5,14.3,29.15,North,357,0.0,0.0,57,0.00,,,0.00,VWS V14.00,2013-12-01 06:38:00,
2013-12-01 01:39:00,27.5,14.3,29.15,North,357,0.0,0.0,57,0.00,,,0.00,VWS V14.00,2013-12-01 06:39:00,
2013-12-01 01:40:00,27.5,14.3,29.15,North,357,0.0,0.0,57,0.00,,,0.00,VWS V14.00,2013-12-01 06:40:00,
2013-12-01 01:41:00,27.5,14.3,29.15,North,357,0.0,0.0,57,0.00,,,0.00,VWS V14.00,2013-12-01 06:41:00,
2013-12-01 01:42:00,27.3,14.1,29.15,North,357,0.0,0.0,57,0.00,,,0.00,VWS V14.00,2013-12-01 06:42:00,
2013-12-01 01:43:00,27.1,13.9,29.15,North,357,0.0,0.0,57,0.00,,,0.00,VWS V14.00,2013-12-01 06:43:00,
2013-12-01 01:44:00,27.1,13.9,29.15,North,357,0.0,0.0,57,0.00,,,0.00,VWS V14.00,2013-12-01 06:44:00,
2013-12-01 01:45:00,27.1,13.9,29.15,North,357,0.0,0.0,57,0.00,,,0.00,VWS V14.00,2013-12-01 06:45:00,
2013-12-01 01:46:00,27.3,14.1,29.15,North,357,0.0,0.0,57,0.00,,,0.00,VWS V14.00,2013-12-01 06:46:00,
2013-12-01 01:47:00,27.1,13.9,29.15,North,357,0.0,0.0,57,0.00,,,0.00,VWS V14.00,2013-12-01 06:47:00,
2013-12-01 01:48:00,27.0,13.8,29.15,North,357,0.0,0.0,57,0.00,,,0.00,VWS V14.00,2013-12-01 06:48:00,
2013-12-01 01:49:00,27.0,13.8,29.15,North,357,0.0,0.0,57,0.00,,,0.00,VWS V14.00,2013-12-01 06:49:00,
2013-12-01 01:50:00,27.0,13.8,29.15,North,357,0.0,0.0,57,0.00,,,0.00,VWS V14.00,2013-12-01 06:50:00,
2013-12-01 01:51:00,27.0,13.8,29.15,North,357,0.0,0.0,57,0.00,,,0.00,VWS V14.00,2013-12-01 06:51:00,
2013-12-01 01:52:00,27.0,13.8,29.15,North,357,0.0,0.0,57,0.00,,,0.00,VWS V14.00,2013-12-01 06:52:00,
2013-12-01 01:53:00,27.0,13.8,29.15,North,357,0.0,0.0,57,0.00,,,0.00,VWS V14.00,2013-12-01 06:53:00,
2013-12-01 01:54:00,27.0,13.8,29.15,North,357,0.0,0.0,57,0.00,,,0.00,VWS V14.00,2013-12-01 06:54:00,
2013-12-01 01:55:00,27.0,13.8,29.15,North,357,0.0,0.0,57,0.00,,,0.00,VWS V14.00,2013-12-01 06:55:00,
2013-12-01 01:56:00,27.0,13.8,29.15,North,357,0.0,0.0,57,0.00,,,0.00,VWS V14.00,2013-12-01 06:56:00,
2013-12-01 01:57:00,27.0,13.8,29.15,North,357,0.0,0.0,57,0.00,,,0.00,VWS V14.00,2013-12-01 06:57:00,
2013-12-01 01:58:00,27.0,13.8,29.15,North,357,0.0,0.0,57,0.00,,,0.00,VWS V14.00,2013-12-01 06:58:00,
2013-12-01 01:59:00,27.0,13.8,29.15,North,357,0.0,0.0,57,0.00,,,0.00,VWS V14.00,2013-12-01 06:59:00,
2013-12-01 02:00:00,27.0,13.8,29.15,North,357,0.0,0.0,57,0.00,,,0.00,VWS V14.00,2013-12-01 07:00:00,
2013-12-01 02:01:00,27.0,13.8,29.15,North,357,0.0,0.0,57,0.00,,,0.00,VWS V14.00,2013-12-01 07:01:00,
2013-12-01 02:02:00,27.0,13.8,29.15,North,357,0.0,0.0,57,0.00,,,0.00,VWS V14.00,2013-12-01 07:02:00,
2013-12-01 02:03:00,27.0,13.8,29.15,North,357,0.0,0.0,57,0.00,,,0.00,VWS V14.00,2013-12-01 07:03:00,
2013-12-01 02:04:00,27.0,13.8,29.15,North,357,0.0,0.0,57,0.00,,,0.00,VWS V14.00,2013-12-01 07:04:00,
2013-12-01 02:05:00,27.0,13.8,29.15,North,357,0.0,0.0,57,0.00,,,0.00,VWS V14.00,2013-12-01 07:05:00,
2013-12-01 02:06:00,27.0,13.8,29.15,North,357,0.0,0.0,57,0.00,,,0.00,VWS V14.00,2013-12-01 07:06:00,
2013-12-01 02:07:00,27.0,13.8,29.15,North,357,0.0,0.0,57,0.00,,,0.00,VWS V14.00,2013-12-01 07:07:00,
2013-12-01 02:08:00,27.0,13.8,29.15,North,357,0.0,0.0,57,0.00,,,0.00,VWS V14.00,2013-12-01 07:08:00,
2013-12-01 02:09:00,27.0,13.8,29.15,North,357,0.0,0.0,57,0.00,,,0.00,VWS V14.00,2013-12-01 07:09:00,
2013-12-01 02:10:00,27.0,13.8,29.15,North,357,0.0,0.0,57,0.00,,,0.00,VWS V14.00,2013-12-01 07:10:00,
2013-12-01 02:11:00,27.0,13.8,29.15,North,357,0.0,0.0,57,0.00,,,0.00,VWS V14.00,2013-12-01 07:11:00,
2013-12-01 02:12:00,27.0,13.8,29.15,North,357,0.0,0.0,57,0.00,,,0.00,VWS V14.00,2013-12-01 07:12:00,
2013-12-01 02:13:00,27.0,13.8,29.15,North,357,0.0,0.0,57,0.00,,,0.00,VWS V14.00,2013-12-01 07:13:00,
2013-12-01 02:14:00,26.8,13.6,29.15,North,357,0.0,0.0,57,0.00,,,0.00,VWS V14.00,2013-12-01 07:14:00,
2013-12-01 02:15:00,26.8,13.6,29.15,North,357,0.0,0.0,57,0.00,,,0.00,VWS V14.00,2013-12-01 07:15:00,
2013-12-01 02:16:00,27.0,13.8,29.15,North,357,0.0,0.0,57,0.00,,,0.00,VWS V14.00,2013-12-01 07:16:00,
2013-12-01 02:17:00,26.8,13.6,29.15,North,357,0.0,0.0,57,0.00,,,0.00,VWS V14.00,2013-12-01 07:17:00,
2013-12-01 02:18:00,26.8,13.6,29.15,North,357,0.0,0.0,57,0.00,,,0.00,VWS V14.00,2013-12-01 07:18:00,
2013-12-01 02:19:00,26.8,13.6,29.15,North,357,0.0,0.0,57,0.00,,,0.00,VWS V14.00,2013-12-01 07:19:00,
2013-12-01 02:20:00,26.8,13.6,29.15,North,357,0.0,0.0,57,0.00,,,0.00,VWS V14.00,2013-12-01 07:20:00,
2013-12-01 02:21:00,26.8,13.6,29.15,North,357,0.0,0.0,57,0.00,,,0.00,VWS V14.00,2013-12-01 07:21:00,
2013-12-01 02:22:00,26.8,13.6,29.15,North,357,0.0,0.0,57,0.00,,,0.00,VWS V14.00,2013-12-01 07:22:00,
2013-12-01 02:23:00,26.8,13.6,29.15,North,357,0.0,0.0,57,0.00,,,0.00,VWS V14.00,2013-12-01 07:23:00,
2013-12-01 02:24:00,26.8,13.6,29.15,North,357,0.0,0.0,57,0.00,,,0.00,VWS V14.00,2013-12-01 07:24:00,
2013-12-01 02:25:00,26.6,13.8,29.15,North,357,0.0,0.0,58,0.00,,,0.00,VWS V14.00,2013-12-01 07:25:00,
2013-12-01 02:26:00,26.8,13.6,29.15,North,357,0.0,0.0,57,0.00,,,0.00,VWS V14.00,2013-12-01 07:26:00,
2013-12-01 02:27:00,26.6,13.8,29.15,North,357,0.0,0.0,58,0.00,,,0.00,VWS V14.00,2013-12-01 07:27:00,
2013-12-01 02:28:00,26.6,13.8,29.15,North,357,0.0,0.0,58,0.00,,,0.00,VWS V14.00,2013-12-01 07:28:00,
2013-12-01 02:29:00,26.6,13.8,29.15,North,357,0.0,0.0,58,0.00,,,0.00,VWS V14.00,2013-12-01 07:29:00,
2013-12-01 02:30:00,26.6,13.8,29.15,North,357,0.0,0.0,58,0.00,,,0.00,VWS V14.00,2013-12-01 07:30:00,
2013-12-01 02:31:00,26.6,13.8,29.15,North,357,0.0,0.0,58,0.00,,,0.00,VWS V14.00,2013-12-01 07:31:00,
2013-12-01 02:32:00,26.6,13.8,29.15,North,357,0.0,0.0,58,0.00,,,0.00,VWS V14.00,2013-12-01 07:32:00,
2013-12-01 02:33:00,26.8,14.0,29.15,North,357,0.0,0.0,58,0.00,,,0.00,VWS V14.00,2013-12-01 07:33:00,
2013-12-01 02:34:00,26.8,14.0,29.15,North,357,0.0,0.0,58,0.00,,,0.00,VWS V14.00,2013-12-01 07:34:00,
2013-12-01 02:35:00,26.6,13.8,29.15,North,357,0.0,0.0,58,0.00,,,0.00,VWS V14.00,2013-12-01 07:35:00,
2013-12-01 02:36:00,26.6,13.8,29.15,North,357,0.0,0.0,58,0.00,,,0.00,VWS V14.00,2013-12-01 07:36:00,
2013-12-01 02:37:00,26.8,14.0,29.15,North,357,0.0,0.0,58,0.00,,,0.00,VWS V14.00,2013-12-01 07:37:00,
2013-12-01 02:38:00,26.6,13.8,29.15,North,357,0.0,0.0,58,0.00,,,0.00,VWS V14.00,2013-12-01 07:38:00,
2013-12-01 02:39:00,26.6,13.8,29.15,North,357,0.0,0.0,58,0.00,,,0.00,VWS V14.00,2013-12-01 07:39:00,
2013-12-01 02:40:00,26.6,13.8,29.15,North,357,0.0,0.0,58,0.00,,,0.00,VWS V14.00,2013-12-01 07:40:00,
2013-12-01 02:41:00,26.6,13.8,29.15,North,357,0.0,0.0,58,0.00,,,0.00,VWS V14.00,2013-12-01 07:41:00,
2013-12-01 02:42:00,26.6,13.8,29.15,North,357,0.0,0.0,58,0.00,,,0.00,VWS V14.00,2013-12-01 07:42:00,
2013-12-01 02:43:00,26.6,13.8,29.15,North,357,0.0,0.0,58,0.00,,,0.00,VWS V14.00,2013-12-01 07:43:00,
2013-12-01 02:44:00,26.6,13.8,29.15,North,357,0.0,0.0,58,0.00,,,0.00,VWS V14.00,2013-12-01 07:44:00,
2013-12-01 02:45:00,26.6,13.8,29.15,North,357,0.0,0.0,58,0.00,,,0.00,VWS V14.00,2013-12-01 07:45:00,
2013-12-01 02:46:00,26.6,13.8,29.15,North,357,0.0,0.0,58,0.00,,,0.00,VWS V14.00,2013-12-01 07:46:00,
2013-12-01 02:47:00,26.6,13.8,29.15,North,357,0.0,0.0,58,0.00,,,0.00,VWS V14.00,2013-12-01 07:47:00,
2013-12-01 02:48:00,26.6,13.8,29.15,North,357,0.0,0.0,58,0.00,,,0.00,VWS V14.00,2013-12-01 07:48:00,
2013-12-01 02:49:00,26.6,13.8,29.15,North,357,0.0,0.0,58,0.00,,,0.00,VWS V14.00,2013-12-01 07:49:00,
2013-12-01 02:50:00,26.4,13.7,29.15,North,357,0.0,0.0,58,0.00,,,0.00,VWS V14.00,2013-12-01 07:50:00,
2013-12-01 02:51:00,26.6,13.8,29.15,North,357,0.0,0.0,58,0.00,,,0.00,VWS V14.00,2013-12-01 07:51:00,
2013-12-01 02:52:00,26.4,13.7,29.15,North,357,0.0,0.0,58,0.00,,,0.00,VWS V14.00,2013-12-01 07:52:00,
2013-12-01 02:53:00,26.4,13.7,29.12,North,357,0.0,0.0,58,0.00,,,0.00,VWS V14.00,2013-12-01 07:53:00,
2013-12-01 02:54:00,26.4,13.7,29.12,North,357,0.0,0.0,58,0.00,,,0.00,VWS V14.00,2013-12-01 07:54:00,
2013-12-01 02:55:00,26.4,13.7,29.12,North,357,0.0,0.0,58,0.00,,,0.00,VWS V14.00,2013-12-01 07:55:00,
2013-12-01 02:56:00,26.4,13.7,29.15,North,357,0.0,0.0,58,0.00,,,0.00,VWS V14.00,2013-12-01 07:56:00,
2013-12-01 02:57:00,26.4,13.7,29.12,North,357,0.0,0.0,58,0.00,,,0.00,VWS V14.00,2013-12-01 07:57:00,
2013-12-01 02:58:00,26.4,13.7,29.12,North,357,0.0,0.0,58,0.00,,,0.00,VWS V14.00,2013-12-01 07:58:00,
2013-12-01 02:59:00,26.4,13.7,29.12,North,357,0.0,0.0,58,0.00,,,0.00,VWS V14.00,2013-12-01 07:59:00,
2013-12-01 03:00:00,26.4,13.7,29.12,North,357,0.0,0.0,58,0.00,,,0.00,VWS V14.00,2013-12-01 08:00:00,
2013-12-01 03:01:00,26.4,13.7,29.12,North,357,0.0,0.0,58,0.00,,,0.00,VWS V14.00,2013-12-01 08:01:00,
2013-12-01 03:02:00,26.4,13.7,29.12,North,357,0.0,0.0,58,0.00,,,0.00,VWS V14.00,2013-12-01 08:02:00,
2013-12-01 03:03:00,26.4,13.7,29.12,North,357,0.0,0.0,58,0.00,,,0.00,VWS V14.00,2013-12-01 08:03:00,
2013-12-01 03:04:00,26.2,13.5,29.12,North,357,0.0,0.0,58,0.00,,,0.00,VWS V14.00,2013-12-01 08:04:00,
2013-12-01 03:05:00,26.2,13.5,29.12,North,357,0.0,0.0,58,0.00,,,0.00,VWS V14.00,2013-12-01 08:05:00,
2013-12-01 03:06:00,26.4,13.7,29.12,North,357,0.0,0.0,58,0.00,,,0.00,VWS V14.00,2013-12-01 08:06:00,
2013-12-01 03:07:00,26.2,13.5,29.12,North,357,0.0,0.0,58,0.00,,,0.00,VWS V14.00,2013-12-01 08:07:00,
2013-12-01 03:08:00,26.2,13.5,29.12,North,357,0.0,0.0,58,0.00,,,0.00,VWS V14.00,2013-12-01 08:08:00,
2013-12-01 03:09:00,26.2,13.5,29.12,North,357,0.0,0.0,58,0.00,,,0.00,VWS V14.00,2013-12-01 08:09:00,
2013-12-01 03:10:00,26.2,13.5,29.12,North,357,0.0,0.0,58,0.00,,,0.00,VWS V14.00,2013-12-01 08:10:00,
2013-12-01 03:11:00,26.2,13.5,29.12,North,357,0.0,0.0,58,0.00,,,0.00,VWS V14.00,2013-12-01 08:11:00,
2013-12-01 03:12:00,26.1,13.3,29.12,North,357,0.0,0.0,58,0.00,,,0.00,VWS V14.00,2013-12-01 08:12:00,
2013-12-01 03:13:00,26.1,13.3,29.12,North,357,0.0,0.0,58,0.00,,,0.00,VWS V14.00,2013-12-01 08:13:00,
2013-12-01 03:14:00,26.1,13.3,29.12,North,357,0.0,0.0,58,0.00,,,0.00,VWS V14.00,2013-12-01 08:14:00,
2013-12-01 03:15:00,26.2,13.9,29.12,North,357,0.0,0.0,59,0.00,,,0.00,VWS V14.00,2013-12-01 08:15:00,
2013-12-01 03:16:00,26.1,13.3,29.12,North,357,0.0,0.0,58,0.00,,,0.00,VWS V14.00,2013-12-01 08:16:00,
2013-12-01 03:17:00,26.2,13.9,29.12,North,357,0.0,0.0,59,0.00,,,0.00,VWS V14.00,2013-12-01 08:17:00,
2013-12-01 03:18:00,26.2,13.9,29.12,North,357,0.0,0.0,59,0.00,,,0.00,VWS V14.00,2013-12-01 08:18:00,
2013-12-01 03:19:00,26.2,13.9,29.12,North,357,0.0,0.0,59,0.00,,,0.00,VWS V14.00,2013-12-01 08:19:00,
2013-12-01 03:20:00,26.2,13.9,29.12,North,357,0.0,0.0,59,0.00,,,0.00,VWS V14.00,2013-12-01 08:20:00,
2013-12-01 03:21:00,26.2,13.9,29.12,North,357,0.0,0.0,59,0.00,,,0.00,VWS V14.00,2013-12-01 08:21:00,
2013-12-01 03:22:00,26.2,13.9,29.12,North,357,0.0,0.0,59,0.00,,,0.00,VWS V14.00,2013-12-01 08:22:00,
2013-12-01 03:23:00,26.4,14.1,29.12,North,357,0.0,0.0,59,0.00,,,0.00,VWS V14.00,2013-12-01 08:23:00,
2013-12-01 03:24:00,26.4,14.1,29.12,North,357,0.0,0.0,59,0.00,,,0.00,VWS V14.00,2013-12-01 08:24:00,
2013-12-01 03:25:00,26.4,14.1,29.12,North,357,0.0,0.0,59,0.00,,,0.00,VWS V14.00,2013-12-01 08:25:00,
2013-12-01 03:26:00,26.4,14.1,29.12,North,357,0.0,0.0,59,0.00,,,0.00,VWS V14.00,2013-12-01 08:26:00,
2013-12-01 03:27:00,26.4,14.1,29.12,North,357,0.0,0.0,59,0.00,,,0.00,VWS V14.00,2013-12-01 08:27:00,
2013-12-01 03:28:00,26.4,14.1,29.12,North,357,0.0,0.0,59,0.00,,,0.00,VWS V14.00,2013-12-01 08:28:00,
2013-12-01 03:29:00,26.4,14.1,29.12,North,357,0.0,0.0,59,0.00,,,0.00,VWS V14.00,2013-12-01 08:29:00,
2013-12-01 03:30:00,26.6,14.2,29.12,North,357,0.0,0.0,59,0.00,,,0.00,VWS V14.00,2013-12-01 08:30:00,
2013-12-01 03:31:00,26.4,14.1,29.12,North,357,0.0,0.0,59,0.00,,,0.00,VWS V14.00,2013-12-01 08:31:00,
2013-12-01 03:32:00,26.6,14.2,29.12,North,357,0.0,0.0,59,0.00,,,0.00,VWS V14.00,2013-12-01 08:32:00,
2013-12-01 03:33:00,26.6,14.2,29.12,North,357,0.0,0.0,59,0.00,,,0.00,VWS V14.00,2013-12-01 08:33:00,
2013-12-01 03:34:00,26.8,14.4,29.12,North,357,0.0,0.0,59,0.00,,,0.00,VWS V14.00,2013-12-01 08:34:00,
2013-12-01 03:35:00,26.8,14.4,29.12,North,357,0.0,0.0,59,0.00,,,0.00,VWS V14.00,2013-12-01 08:35:00,
2013-12-01 03:36:00,26.6,14.2,29.12,North,357,0.0,0.0,59,0.00,,,0.00,VWS V14.00,2013-12-01 08:36:00,
2013-12-01 03:37:00,27.0,14.6,29.12,North,357,0.0,0.0,59,0.00,,,0.00,VWS V14.00,2013-12-01 08:37:00,
2013-12-01 03:38:00,27.0,14.6,29.09,North,357,0.0,0.0,59,0.00,,,0.00,VWS V14.00,2013-12-01 08:38:00,
2013-12-01 03:39:00,27.0,14.6,29.09,North,357,0.0,0.0,59,0.00,,,0.00,VWS V14.00,2013-12-01 08:39:00,
2013-12-01 03:40:00,27.0,14.6,29.09,North,357,0.0,0.0,59,0.00,,,0.00,VWS V14.00,2013-12-01 08:40:00,
2013-12-01 03:41:00,27.0,14.6,29.12,North,357,0.0,0.0,59,0.00,,,0.00,VWS V14.00,2013-12-01 08:41:00,
2013-12-01 03:42:00,27.0,14.6,29.09,North,357,0.0,0.0,59,0.00,,,0.00,VWS V14.00,2013-12-01 08:42:00,
2013-12-01 03:43:00,27.0,14.6,29.09,North,357,0.0,0.0,59,0.00,,,0.00,VWS V14.00,2013-12-01 08:43:00,
2013-12-01 03:44:00,27.0,14.6,29.09,North,357,0.0,0.0,59,0.00,,,0.00,VWS V14.00,2013-12-01 08:44:00,
2013-12-01 03:45:00,27.0,14.6,29.09,North,357,0.0,0.0,59,0.00,,,0.00,VWS V14.00,2013-12-01 08:45:00,
2013-12-01 03:46:00,27.0,14.6,29.09,North,357,0.0,0.0,59,0.00,,,0.00,VWS V14.00,2013-12-01 08:46:00,
2013-12-01 03:47:00,27.0,14.6,29.09,North,357,0.0,0.0,59,0.00,,,0.00,VWS V14.00,2013-12-01 08:47:00,
2013-12-01 03:48:00,27.0,14.6,29.09,North,357,0.0,0.0,59,0.00,,,0.00,VWS V14.00,2013-12-01 08:48:00,
2013-12-01 03:49:00,27.0,14.6,29.09,North,357,0.0,0.0,59,0.00,,,0.00,VWS V14.00,2013-12-01 08:49:00,
2013-12-01 03:50:00,27.0,14.6,29.09,North,357,0.0,0.0,59,0.00,,,0.00,VWS V14.00,2013-12-01 08:50:00,
2013-12-01 03:51:00,27.0,14.6,29.09,North,357,0.0,0.0,59,0.00,,,0.00,VWS V14.00,2013-12-01 08:51:00,
2013-12-01 03:52:00,27.0,14.6,29.09,North,357,0.0,0.0,59,0.00,,,0.00,VWS V14.00,2013-12-01 08:52:00,
2013-12-01 03:53:00,26.8,14.4,29.09,North,357,0.0,0.0,59,0.00,,,0.00,VWS V14.00,2013-12-01 08:53:00,
2013-12-01 03:54:00,26.8,14.4,29.09,North,357,0.0,0.0,59,0.00,,,0.00,VWS V14.00,2013-12-01 08:54:00,
2013-12-01 03:55:00,27.0,14.6,29.09,North,357,0.0,0.0,59,0.00,,,0.00,VWS V14.00,2013-12-01 08:55:00,
2013-12-01 03:56:00,26.8,14.4,29.09,North,357,0.0,0.0,59,0.00,,,0.00,VWS V14.00,2013-12-01 08:56:00,
2013-12-01 03:57:00,26.6,14.2,29.09,North,357,0.0,0.0,59,0.00,,,0.00,VWS V14.00,2013-12-01 08:57:00,
2013-12-01 03:58:00,26.6,14.2,29.09,North,357,0.0,0.0,59,0.00,,,0.00,VWS V14.00,2013-12-01 08:58:00,
2013-12-01 03:59:00,26.6,14.2,29.09,North,357,0.0,0.0,59,0.00,,,0.00,VWS V14.00,2013-12-01 08:59:00,
2013-12-01 04:00:00,26.6,14.2,29.09,North,357,0.0,0.0,59,0.00,,,0.00,VWS V14.00,2013-12-01 09:00:00,
2013-12-01 04:01:00,26.6,14.2,29.09,North,357,0.0,0.0,59,0.00,,,0.00,VWS V14.00,2013-12-01 09:01:00,
2013-12-01 04:02:00,26.6,14.2,29.09,North,357,0.0,0.0,59,0.00,,,0.00,VWS V14.00,2013-12-01 09:02:00,
2013-12-01 04:03:00,26.4,14.1,29.09,North,357,0.0,0.0,59,0.00,,,0.00,VWS V14.00,2013-12-01 09:03:00,
2013-12-01 04:04:00,26.4,14.1,29.09,North,357,0.0,0.0,59,0.00,,,0.00,VWS V14.00,2013-12-01 09:04:00,
2013-12-01 04:05:00,26.4,14.1,29.09,North,357,0.0,0.0,59,0.00,,,0.00,VWS V14.00,2013-12-01 09:05:00,
2013-12-01 04:06:00,26.4,14.1,29.09,North,357,0.0,0.0,59,0.00,,,0.00,VWS V14.00,2013-12-01 09:06:00,
2013-12-01 04:07:00,26.4,14.1,29.09,North,357,0.0,0.0,59,0.00,,,0.00,VWS V14.00,2013-12-01 09:07:00,
2013-12-01 04:08:00,26.6,14.2,29.09,North,357,0.0,0.0,59,0.00,,,0.00,VWS V14.00,2013-12-01 09:08:00,
2013-12-01 04:09:00,26.6,14.6,29.09,North,357,0.0,0.0,60,0.00,,,0.00,VWS V14.00,2013-12-01 09:09:00,
2013-12-01 04:10:00,26.6,14.6,29.09,North,357,0.0,0.0,60,0.00,,,0.00,VWS V14.00,2013-12-01 09:10:00,
2013-12-01 04:11:00,26.4,14.1,29.09,North,357,0.0,0.0,59,0.00,,,0.00,VWS V14.00,2013-12-01 09:11:00,
2013-12-01 04:12:00,26.8,14.4,29.09,North,357,0.0,0.0,59,0.00,,,0.00,VWS V14.00,2013-12-01 09:12:00,
2013-12-01 04:13:00,26.8,14.4,29.09,North,357,0.0,0.0,59,0.00,,,0.00,VWS V14.00,2013-12-01 09:13:00,
2013-12-01 04:14:00,26.8,14.4,29.09,North,357,0.0,0.0,59,0.00,,,0.00,VWS V14.00,2013-12-01 09:14:00,
2013-12-01 04:15:00,26.8,14.4,29.09,North,357,0.0,0.0,59,0.00,,,0.00,VWS V14.00,2013-12-01 09:15:00,
2013-12-01 04:16:00,26.8,14.4,29.09,North,357,0.0,0.0,59,0.00,,,0.00,VWS V14.00,2013-12-01 09:16:00,
2013-12-01 04:17:00,26.8,14.4,29.09,North,357,0.0,0.0,59,0.00,,,0.00,VWS V14.00,2013-12-01 09:17:00,
2013-12-01 04:18:00,26.8,14.4,29.09,North,357,0.0,0.0,59,0.00,,,0.00,VWS V14.00,2013-12-01 09:18:00,
2013-12-01 04:19:00,27.0,14.6,29.09,North,357,0.0,0.0,59,0.00,,,0.00,VWS V14.00,2013-12-01 09:19:00,
2013-12-01 04:20:00,27.0,14.6,29.09,North,357,0.0,0.0,59,0.00,,,0.00,VWS V14.00,2013-12-01 09:20:00,
2013-12-01 04:21:00,26.8,14.4,29.09,North,357,0.0,0.0,59,0.00,,,0.00,VWS V14.00,2013-12-01 09:21:00,
2013-12-01 04:22:00,27.0,14.6,29.09,North,357,0.0,0.0,59,0.00,,,0.00,VWS V14.00,2013-12-01 09:22:00,
2013-12-01 04:23:00,27.0,14.9,29.09,North,357,0.0,0.0,60,0.00,,,0.00,VWS V14.00,2013-12-01 09:23:00,
2013-12-01 04:24:00,27.0,14.9,29.09,North,357,0.0,0.0,60,0.00,,,0.00,VWS V14.00,2013-12-01 09:24:00,
2013-12-01 04:25:00,27.0,14.9,29.09,North,357,0.0,0.0,60,0.00,,,0.00,VWS V14.00,2013-12-01 09:25:00,
2013-12-01 04:26:00,27.0,14.6,29.09,North,357,0.0,0.0,59,0.00,,,0.00,VWS V14.00,2013-12-01 09:26:00,
2013-12-01 04:27:00,27.0,14.9,29.09,North,357,0.0,0.0,60,0.00,,,0.00,VWS V14.00,2013-12-01 09:27:00,
2013-12-01 04:28:00,27.1,15.1,29.09,North,357,0.0,0.0,60,0.00,,,0.00,VWS V14.00,2013-12-01 09:28:00,
2013-12-01 04:29:00,27.1,15.1,29.09,North,357,0.0,0.0,60,0.00,,,0.00,VWS V14.00,2013-12-01 09:29:00,
2013-12-01 04:30:00,27.1,15.1,29.09,North,357,0.0,0.0,60,0.00,,,0.00,VWS V14.00,2013-12-01 09:30:00,
2013-12-01 04:31:00,27.0,14.9,29.09,North,357,0.0,0.0,60,0.00,,,0.00,VWS V14.00,2013-12-01 09:31:00,
2013-12-01 04:32:00,27.1,15.1,29.09,North,357,0.0,0.0,60,0.00,,,0.00,VWS V14.00,2013-12-01 09:32:00,
2013-12-01 04:33:00,27.3,15.3,29.09,North,357,0.0,0.0,60,0.00,,,0.00,VWS V14.00,2013-12-01 09:33:00,
2013-12-01 04:34:00,27.3,15.3,29.09,North,357,0.0,0.0,60,0.00,,,0.00,VWS V14.00,2013-12-01 09:34:00,
2013-12-01 04:35:00,27.3,15.3,29.09,North,357,0.0,0.0,60,0.00,,,0.00,VWS V14.00,2013-12-01 09:35:00,
2013-12-01 04:36:00,27.1,15.1,29.09,North,357,0.0,0.0,60,0.00,,,0.00,VWS V14.00,2013-12-01 09:36:00,
2013-12-01 04:37:00,27.3,15.3,29.09,North,357,0.0,0.0,60,0.00,,,0.00,VWS V14.00,2013-12-01 09:37:00,
2013-12-01 04:38:00,27.3,15.3,29.09,North,357,0.0,0.0,60,0.00,,,0.00,VWS V14.00,2013-12-01 09:38:00,
2013-12-01 04:39:00,27.3,15.3,29.09,North,357,0.0,0.0,60,0.00,,,0.00,VWS V14.00,2013-12-01 09:39:00,
2013-12-01 04:40:00,27.3,15.3,29.09,North,357,0.0,0.0,60,0.00,,,0.00,VWS V14.00,2013-12-01 09:40:00,
2013-12-01 04:41:00,27.3,15.3,29.09,North,357,0.0,0.0,60,0.00,,,0.00,VWS V14.00,2013-12-01 09:41:00,
2013-12-01 04:42:00,27.3,15.3,29.09,North,357,0.0,0.0,60,0.00,,,0.00,VWS V14.00,2013-12-01 09:42:00,
2013-12-01 04:43:00,27.3,15.3,29.09,North,357,0.0,0.0,60,0.00,,,0.00,VWS V14.00,2013-12-01 09:43:00,
2013-12-01 04:44:00,27.3,15.3,29.09,North,357,0.0,0.0,60,0.00,,,0.00,VWS V14.00,2013-12-01 09:44:00,
2013-12-01 04:45:00,27.1,15.1,29.09,North,357,0.0,0.0,60,0.00,,,0.00,VWS V14.00,2013-12-01 09:45:00,
2013-12-01 04:46:00,27.3,15.3,29.09,North,357,0.0,0.0,60,0.00,,,0.00,VWS V14.00,2013-12-01 09:46:00,
2013-12-01 04:47:00,27.1,14.7,29.09,North,357,0.0,0.0,59,0.00,,,0.00,VWS V14.00,2013-12-01 09:47:00,
2013-12-01 04:48:00,27.1,14.7,29.09,North,357,0.0,0.0,59,0.00,,,0.00,VWS V14.00,2013-12-01 09:48:00,
2013-12-01 04:49:00,27.1,14.7,29.09,North,357,0.0,0.0,59,0.00,,,0.00,VWS V14.00,2013-12-01 09:49:00,
2013-12-01 04:50:00,27.1,14.7,29.09,North,357,0.0,0.0,59,0.00,,,0.00,VWS V14.00,2013-12-01 09:50:00,
2013-12-01 04:51:00,27.1,14.7,29.09,North,357,0.0,0.0,59,0.00,,,0.00,VWS V14.00,2013-12-01 09:51:00,
2013-12-01 04:52:00,27.1,15.1,29.09,North,357,0.0,0.0,60,0.00,,,0.00,VWS V14.00,2013-12-01 09:52:00,
2013-12-01 04:53:00,27.1,15.1,29.09,North,357,0.0,0.0,60,0.00,,,0.00,VWS V14.00,2013-12-01 09:53:00,
2013-12-01 04:54:00,27.1,15.1,29.09,North,357,0.0,0.0,60,0.00,,,0.00,VWS V14.00,2013-12-01 09:54:00,
2013-12-01 04:55:00,27.1,15.1,29.09,North,357,0.0,0.0,60,0.00,,,0.00,VWS V14.00,2013-12-01 09:55:00,
2013-12-01 04:56:00,27.1,15.1,29.09,North,357,0.0,0.0,60,0.00,,,0.00,VWS V14.00,2013-12-01 09:56:00,
2013-12-01 04:57:00,27.1,15.1,29.09,North,357,0.0,0.0,60,0.00,,,0.00,VWS V14.00,2013-12-01 09:57:00,
2013-12-01 04:58:00,27.1,15.1,29.09,North,357,0.0,0.0,60,0.00,,,0.00,VWS V14.00,2013-12-01 09:58:00,
2013-12-01 04:59:00,27.1,15.1,29.09,North,357,0.0,0.0,60,0.00,,,0.00,VWS V14.00,2013-12-01 09:59:00,
2013-12-01 05:00:00,27.1,15.1,29.09,North,357,0.0,0.0,60,0.00,,,0.00,VWS V14.00,2013-12-01 10:00:00,
2013-12-01 05:01:00,27.1,15.1,29.09,North,357,0.0,0.0,60,0.00,,,0.00,VWS V14.00,2013-12-01 10:01:00,
2013-12-01 05:02:00,27.1,15.1,29.09,North,357,0.0,0.0,60,0.00,,,0.00,VWS V14.00,2013-12-01 10:02:00,
2013-12-01 05:03:00,27.1,15.1,29.09,North,357,0.0,0.0,60,0.00,,,0.00,VWS V14.00,2013-12-01 10:03:00,
2013-12-01 05:04:00,27.1,15.1,29.09,North,357,0.0,0.0,60,0.00,,,0.00,VWS V14.00,2013-12-01 10:04:00,
2013-12-01 05:05:00,27.1,15.1,29.09,North,357,0.0,0.0,60,0.00,,,0.00,VWS V14.00,2013-12-01 10:05:00,
2013-12-01 05:06:00,27.1,15.1,29.09,North,357,0.0,0.0,60,0.00,,,0.00,VWS V14.00,2013-12-01 10:06:00,
2013-12-01 05:07:00,27.1,15.1,29.09,North,357,0.0,0.0,60,0.00,,,0.00,VWS V14.00,2013-12-01 10:07:00,
2013-12-01 05:08:00,27.1,15.1,29.09,North,357,0.0,0.0,60,0.00,,,0.00,VWS V14.00,2013-12-01 10:08:00,
2013-12-01 05:09:00,27.1,15.1,29.09,North,357,0.0,0.0,60,0.00,,,0.00,VWS V14.00,2013-12-01 10:09:00,
2013-12-01 05:10:00,27.1,15.1,29.09,North,357,0.0,0.0,60,0.00,,,0.00,VWS V14.00,2013-12-01 10:10:00,
2013-12-01 05:11:00,27.1,15.1,29.09,North,357,0.0,0.0,60,0.00,,,0.00,VWS V14.00,2013-12-01 10:11:00,
2013-12-01 05:12:00,27.1,15.1,29.09,North,357,0.0,0.0,60,0.00,,,0.00,VWS V14.00,2013-12-01 10:12:00,
2013-12-01 05:13:00,27.1,15.1,29.09,North,357,0.0,0.0,60,0.00,,,0.00,VWS V14.00,2013-12-01 10:13:00,
2013-12-01 05:14:00,27.1,15.1,29.09,North,357,0.0,0.0,60,0.00,,,0.00,VWS V14.00,2013-12-01 10:14:00,
2013-12-01 05:15:00,27.1,15.1,29.09,North,357,0.0,0.0,60,0.00,,,0.00,VWS V14.00,2013-12-01 10:15:00,
2013-12-01 05:16:00,27.1,15.1,29.09,North,357,0.0,0.0,60,0.00,,,0.00,VWS V14.00,2013-12-01 10:16:00,
2013-12-01 05:17:00,27.1,15.1,29.09,North,357,0.0,0.0,60,0.00,,,0.00,VWS V14.00,2013-12-01 10:17:00,
2013-12-01 05:18:00,27.1,15.1,29.09,North,357,0.0,0.0,60,0.00,,,0.00,VWS V14.00,2013-12-01 10:18:00,
2013-12-01 05:19:00,27.1,15.1,29.09,North,357,0.0,0.0,60,0.00,,,0.00,VWS V14.00,2013-12-01 10:19:00,
2013-12-01 05:20:00,27.1,15.1,29.09,North,357,0.0,0.0,60,0.00,,,0.00,VWS V14.00,2013-12-01 10:20:00,
2013-12-01 05:21:00,27.1,15.1,29.09,North,357,0.0,0.0,60,0.00,,,0.00,VWS V14.00,2013-12-01 10:21:00,
2013-12-01 05:22:00,27.0,14.9,29.09,North,357,0.0,0.0,60,0.00,,,0.00,VWS V14.00,2013-12-01 10:22:00,
2013-12-01 05:23:00,27.0,14.9,29.09,North,357,0.0,0.0,60,0.00,,,0.00,VWS V14.00,2013-12-01 10:23:00,
2013-12-01 05:24:00,27.0,14.9,29.09,North,357,0.0,0.0,60,0.00,,,0.00,VWS V14.00,2013-12-01 10:24:00,
2013-12-01 05:25:00,26.8,14.8,29.09,North,357,0.0,0.0,60,0.00,,,0.00,VWS V14.00,2013-12-01 10:25:00,
2013-12-01 05:26:00,27.0,14.9,29.09,North,357,0.0,0.0,60,0.00,,,0.00,VWS V14.00,2013-12-01 10:26:00,
2013-12-01 05:27:00,26.6,14.6,29.09,North,357,0.0,0.0,60,0.00,,,0.00,VWS V14.00,2013-12-01 10:27:00,
2013-12-01 05:28:00,26.6,14.6,29.09,North,357,0.0,0.0,60,0.00,,,0.00,VWS V14.00,2013-12-01 10:28:00,
2013-12-01 05:29:00,26.6,14.6,29.09,North,357,0.0,0.0,60,0.00,,,0.00,VWS V14.00,2013-12-01 10:29:00,
2013-12-01 05:30:00,26.4,14.4,29.09,North,357,0.0,0.0,60,0.00,,,0.00,VWS V14.00,2013-12-01 10:30:00,
2013-12-01 05:31:00,26.6,14.6,29.09,North,357,0.0,0.0,60,0.00,,,0.00,VWS V14.00,2013-12-01 10:31:00,
2013-12-01 05:32:00,26.4,14.4,29.09,North,357,0.0,0.0,60,0.00,,,0.00,VWS V14.00,2013-12-01 10:32:00,
2013-12-01 05:33:00,26.2,14.3,29.09,North,357,0.0,0.0,60,0.00,,,0.00,VWS V14.00,2013-12-01 10:33:00,
2013-12-01 05:34:00,26.2,14.3,29.09,North,357,0.0,0.0,60,0.00,,,0.00,VWS V14.00,2013-12-01 10:34:00,
2013-12-01 05:35:00,26.2,14.3,29.09,North,357,0.0,0.0,60,0.00,,,0.00,VWS V14.00,2013-12-01 10:35:00,
2013-12-01 05:36:00,26.4,14.4,29.09,North,357,0.0,0.0,60,0.00,,,0.00,VWS V14.00,2013-12-01 10:36:00,
2013-12-01 05:37:00,26.2,14.3,29.09,North,357,0.0,0.0,60,0.00,,,0.00,VWS V14.00,2013-12-01 10:37:00,
2013-12-01 05:38:00,26.2,14.3,29.09,North,357,0.0,0.0,60,0.00,,,0.00,VWS V14.00,2013-12-01 10:38:00,
2013-12-01 05:39:00,26.2,14.3,29.09,North,357,0.0,0.0,60,0.00,,,0.00,VWS V14.00,2013-12-01 10:39:00,
2013-12-01 05:40:00,26.2,14.3,29.09,North,357,0.0,0.0,60,0.00,,,0.00,VWS V14.00,2013-12-01 10:40:00,
2013-12-01 05:41:00,26.2,14.3,29.09,North,357,0.0,0.0,60,0.00,,,0.00,VWS V14.00,2013-12-01 10:41:00,
2013-12-01 05:42:00,26.2,14.3,29.09,North,357,0.0,0.0,60,0.00,,,0.00,VWS V14.00,2013-12-01 10:42:00,
2013-12-01 05:43:00,26.2,14.3,29.09,North,357,0.0,0.0,60,0.00,,,0.00,VWS V14.00,2013-12-01 10:43:00,
2013-12-01 05:44:00,26.2,14.3,29.09,North,357,0.0,0.0,60,0.00,,,0.00,VWS V14.00,2013-12-01 10:44:00,
2013-12-01 05:45:00,26.2,14.3,29.09,North,357,0.0,0.0,60,0.00,,,0.00,VWS V14.00,2013-12-01 10:45:00,
2013-12-01 05:46:00,26.2,14.3,29.09,North,357,0.0,0.0,60,0.00,,,0.00,VWS V14.00,2013-12-01 10:46:00,
2013-12-01 05:47:00,26.2,14.3,29.09,North,357,0.0,0.0,60,0.00,,,0.00,VWS V14.00,2013-12-01 10:47:00,
2013-12-01 05:48:00,26.2,14.3,29.09,North,357,0.0,0.0,60,0.00,,,0.00,VWS V14.00,2013-12-01 10:48:00,
2013-12-01 05:49:00,26.1,14.1,29.09,North,357,0.0,0.0,60,0.00,,,0.00,VWS V14.00,2013-12-01 10:49:00,
2013-12-01 05:50:00,26.1,14.1,29.09,North,357,0.0,0.0,60,0.00,,,0.00,VWS V14.00,2013-12-01 10:50:00,
2013-12-01 05:51:00,26.2,14.3,29.09,North,357,0.0,0.0,60,0.00,,,0.00,VWS V14.00,2013-12-01 10:51:00,
2013-12-01 05:52:00,26.1,14.1,29.09,North,357,0.0,0.0,60,0.00,,,0.00,VWS V14.00,2013-12-01 10:52:00,
2013-12-01 05:53:00,26.1,14.1,29.09,North,357,0.0,0.0,60,0.00,,,0.00,VWS V14.00,2013-12-01 10:53:00,
2013-12-01 05:54:00,26.1,14.1,29.09,North,357,0.0,0.0,60,0.00,,,0.00,VWS V14.00,2013-12-01 10:54:00,
2013-12-01 05:55:00,26.1,14.1,29.09,North,357,0.0,0.0,60,0.00,,,0.00,VWS V14.00,2013-12-01 10:55:00,
2013-12-01 05:56:00,26.1,14.1,29.09,North,357,0.0,0.0,60,0.00,,,0.00,VWS V14.00,2013-12-01 10:56:00,
2013-12-01 05:57:00,25.9,13.9,29.09,North,357,0.0,0.0,60,0.00,,,0.00,VWS V14.00,2013-12-01 10:57:00,
2013-12-01 05:58:00,25.9,13.9,29.09,North,357,0.0,0.0,60,0.00,,,0.00,VWS V14.00,2013-12-01 10:58:00,
2013-12-01 05:59:00,25.9,13.9,29.09,North,357,0.0,0.0,60,0.00,,,0.00,VWS V14.00,2013-12-01 10:59:00,
2013-12-01 06:00:00,25.9,13.9,29.09,North,357,0.0,0.0,60,0.00,,,0.00,VWS V14.00,2013-12-01 11:00:00,
2013-12-01 06:01:00,25.9,13.9,29.09,North,357,0.0,0.0,60,0.00,,,0.00,VWS V14.00,2013-12-01 11:01:00,
2013-12-01 06:02:00,25.9,13.9,29.09,North,357,0.0,0.0,60,0.00,,,0.00,VWS V14.00,2013-12-01 11:02:00,
2013-12-01 06:03:00,25.7,13.8,29.09,North,357,0.0,0.0,60,0.00,,,0.00,VWS V14.00,2013-12-01 11:03:00,
2013-12-01 06:04:00,25.7,13.8,29.09,North,357,0.0,0.0,60,0.00,,,0.00,VWS V14.00,2013-12-01 11:04:00,
2013-12-01 06:05:00,25.7,13.8,29.09,North,357,0.0,0.0,60,0.00,,,0.00,VWS V14.00,2013-12-01 11:05:00,
2013-12-01 06:06:00,25.9,13.9,29.09,North,357,0.0,0.0,60,0.00,,,0.00,VWS V14.00,2013-12-01 11:06:00,
2013-12-01 06:07:00,25.7,13.8,29.09,North,357,0.0,0.0,60,0.00,,,0.00,VWS V14.00,2013-12-01 11:07:00,
2013-12-01 06:08:00,25.7,13.8,29.09,North,357,0.0,0.0,60,0.00,,,0.00,VWS V14.00,2013-12-01 11:08:00,
2013-12-01 06:09:00,25.7,13.8,29.09,North,357,0.0,0.0,60,0.00,,,0.00,VWS V14.00,2013-12-01 11:09:00,
2013-12-01 06:10:00,25.7,13.8,29.09,North,357,0.0,0.0,60,0.00,,,0.00,VWS V14.00,2013-12-01 11:10:00,
2013-12-01 06:11:00,25.7,13.8,29.09,North,357,0.0,0.0,60,0.00,,,0.00,VWS V14.00,2013-12-01 11:11:00,
2013-12-01 06:12:00,25.5,13.6,29.09,North,357,0.0,0.0,60,0.00,,,0.00,VWS V14.00,2013-12-01 11:12:00,
2013-12-01 06:13:00,25.5,13.6,29.09,North,357,0.0,0.0,60,0.00,,,0.00,VWS V14.00,2013-12-01 11:13:00,
2013-12-01 06:14:00,25.5,13.6,29.09,North,357,0.0,0.0,60,0.00,,,0.00,VWS V14.00,2013-12-01 11:14:00,
2013-12-01 06:15:00,25.5,13.6,29.09,North,357,0.0,0.0,60,0.00,,,0.00,VWS V14.00,2013-12-01 11:15:00,
2013-12-01 06:16:00,25.5,13.6,29.09,North,357,0.0,0.0,60,0.00,,,0.00,VWS V14.00,2013-12-01 11:16:00,
2013-12-01 06:17:00,25.5,13.6,29.09,North,357,0.0,0.0,60,0.00,,,0.00,VWS V14.00,2013-12-01 11:17:00,
2013-12-01 06:18:00,25.7,13.8,29.09,North,357,0.0,0.0,60,0.00,,,0.00,VWS V14.00,2013-12-01 11:18:00,
2013-12-01 06:19:00,25.7,13.8,29.09,North,357,0.0,0.0,60,0.00,,,0.00,VWS V14.00,2013-12-01 11:19:00,
2013-12-01 06:20:00,25.5,13.6,29.09,North,357,0.0,0.0,60,0.00,,,0.00,VWS V14.00,2013-12-01 11:20:00,
2013-12-01 06:21:00,25.7,14.1,29.09,North,357,0.0,0.0,61,0.00,,,0.00,VWS V14.00,2013-12-01 11:21:00,
2013-12-01 06:22:00,25.7,14.1,29.09,North,357,0.0,0.0,61,0.00,,,0.00,VWS V14.00,2013-12-01 11:22:00,
2013-12-01 06:23:00,25.7,14.1,29.09,North,357,0.0,0.0,61,0.00,,,0.00,VWS V14.00,2013-12-01 11:23:00,
2013-12-01 06:24:00,25.7,14.1,29.09,North,357,0.0,0.0,61,0.00,,,0.00,VWS V14.00,2013-12-01 11:24:00,
2013-12-01 06:25:00,25.7,14.1,29.09,North,357,0.0,0.0,61,0.00,,,0.00,VWS V14.00,2013-12-01 11:25:00,
2013-12-01 06:26:00,25.7,14.1,29.09,North,357,0.0,0.0,61,0.00,,,0.00,VWS V14.00,2013-12-01 11:26:00,
2013-12-01 06:27:00,25.7,13.8,29.09,North,357,0.0,0.0,60,0.00,,,0.00,VWS V14.00,2013-12-01 11:27:00,
2013-12-01 06:28:00,25.7,13.8,29.09,North,357,0.0,0.0,60,0.00,,,0.00,VWS V14.00,2013-12-01 11:28:00,
2013-12-01 06:29:00,25.7,13.8,29.09,North,357,0.0,0.0,60,0.00,,,0.00,VWS V14.00,2013-12-01 11:29:00,
2013-12-01 06:30:00,25.7,13.8,29.09,North,357,0.0,0.0,60,0.00,,,0.00,VWS V14.00,2013-12-01 11:30:00,
2013-12-01 06:31:00,25.7,13.8,29.09,North,357,0.0,0.0,60,0.00,,,0.00,VWS V14.00,2013-12-01 11:31:00,
2013-12-01 06:32:00,25.7,13.8,29.09,North,357,0.0,0.0,60,0.00,,,0.00,VWS V14.00,2013-12-01 11:32:00,
2013-12-01 06:33:00,25.7,13.8,29.09,North,357,0.0,0.0,60,0.00,,,0.00,VWS V14.00,2013-12-01 11:33:00,
2013-12-01 06:34:00,25.7,14.1,29.09,North,357,0.0,0.0,61,0.00,,,0.00,VWS V14.00,2013-12-01 11:34:00,
2013-12-01 06:35:00,25.7,13.8,29.09,North,357,0.0,0.0,60,0.00,,,0.00,VWS V14.00,2013-12-01 11:35:00,
2013-12-01 06:36:00,25.7,14.1,29.09,North,357,0.0,0.0,61,0.00,,,0.00,VWS V14.00,2013-12-01 11:36:00,
2013-12-01 06:37:00,25.7,14.1,29.09,North,357,0.0,0.0,61,0.00,,,0.00,VWS V14.00,2013-12-01 11:37:00,
2013-12-01 06:38:00,25.9,14.3,29.09,North,357,0.0,0.0,61,0.00,,,0.00,VWS V14.00,2013-12-01 11:38:00,
2013-12-01 06:39:00,25.9,14.3,29.09,North,357,0.0,0.0,61,0.00,,,0.00,VWS V14.00,2013-12-01 11:39:00,
2013-12-01 06:40:00,25.7,14.1,29.09,North,357,0.0,0.0,61,0.00,,,0.00,VWS V14.00,2013-12-01 11:40:00,
2013-12-01 06:41:00,25.9,14.3,29.09,North,357,0.0,0.0,61,0.00,,,0.00,VWS V14.00,2013-12-01 11:41:00,
2013-12-01 06:42:00,25.9,14.3,29.09,North,357,0.0,0.0,61,0.00,,,0.00,VWS V14.00,2013-12-01 11:42:00,
2013-12-01 06:43:00,25.9,14.3,29.09,North,357,0.0,0.0,61,0.00,,,0.00,VWS V14.00,2013-12-01 11:43:00,
2013-12-01 06:44:00,25.9,14.3,29.09,North,357,0.0,0.0,61,0.00,,,0.00,VWS V14.00,2013-12-01 11:44:00,
2013-12-01 06:45:00,25.9,14.3,29.09,North,357,0.0,0.0,61,0.00,,,0.00,VWS V14.00,2013-12-01 11:45:00,
2013-12-01 06:46:00,25.9,14.3,29.09,North,357,0.0,0.0,61,0.00,,,0.00,VWS V14.00,2013-12-01 11:46:00,
2013-12-01 06:47:00,25.9,14.3,29.09,North,357,0.0,0.0,61,0.00,,,0.00,VWS V14.00,2013-12-01 11:47:00,
2013-12-01 06:48:00,25.9,14.3,29.09,North,357,0.0,0.0,61,0.00,,,0.00,VWS V14.00,2013-12-01 11:48:00,
2013-12-01 06:49:00,25.9,14.3,29.09,North,357,0.0,0.0,61,0.00,,,0.00,VWS V14.00,2013-12-01 11:49:00,
2013-12-01 06:50:00,25.9,14.3,29.09,North,357,0.0,0.0,61,0.00,,,0.00,VWS V14.00,2013-12-01 11:50:00,
2013-12-01 06:51:00,25.9,14.3,29.09,North,357,0.0,0.0,61,0.00,,,0.00,VWS V14.00,2013-12-01 11:51:00,
2013-12-01 06:52:00,25.9,14.3,29.09,North,357,0.0,0.0,61,0.00,,,0.00,VWS V14.00,2013-12-01 11:52:00,
2013-12-01 06:53:00,25.9,14.3,29.09,North,357,0.0,0.0,61,0.00,,,0.00,VWS V14.00,2013-12-01 11:53:00,
2013-12-01 06:54:00,25.9,14.3,29.09,North,357,0.0,0.0,61,0.00,,,0.00,VWS V14.00,2013-12-01 11:54:00,
2013-12-01 06:55:00,25.9,14.3,29.09,North,357,0.0,0.0,61,0.00,,,0.00,VWS V14.00,2013-12-01 11:55:00,
2013-12-01 06:56:00,25.9,14.3,29.09,North,357,0.0,0.0,61,0.00,,,0.00,VWS V14.00,2013-12-01 11:56:00,
2013-12-01 06:57:00,25.9,14.3,29.09,North,357,0.0,0.0,61,0.00,,,0.00,VWS V14.00,2013-12-01 11:57:00,
2013-12-01 06:58:00,25.9,14.3,29.09,North,357,0.0,0.0,61,0.00,,,0.00,VWS V14.00,2013-12-01 11:58:00,
2013-12-01 06:59:00,25.9,14.3,29.09,North,357,0.0,0.0,61,0.00,,,0.00,VWS V14.00,2013-12-01 11:59:00,
2013-12-01 07:00:00,25.9,14.3,29.09,North,357,0.0,0.0,61,0.00,,,0.00,VWS V14.00,2013-12-01 12:00:00,
2013-12-01 07:01:00,25.9,14.3,29.09,North,357,0.0,0.0,61,0.00,,,0.00,VWS V14.00,2013-12-01 12:01:00,
2013-12-01 07:02:00,25.9,14.3,29.09,North,357,0.0,0.0,61,0.00,,,0.00,VWS V14.00,2013-12-01 12:02:00,
2013-12-01 07:03:00,25.9,14.3,29.09,North,357,0.0,0.0,61,0.00,,,0.00,VWS V14.00,2013-12-01 12:03:00,
2013-12-01 07:04:00,25.9,14.3,29.09,North,357,0.0,0.0,61,0.00,,,0.00,VWS V14.00,2013-12-01 12:04:00,
2013-12-01 07:05:00,25.9,14.3,29.09,North,357,0.0,0.0,61,0.00,,,0.00,VWS V14.00,2013-12-01 12:05:00,
2013-12-01 07:06:00,25.9,14.3,29.09,North,357,0.0,0.0,61,0.00,,,0.00,VWS V14.00,2013-12-01 12:06:00,
2013-12-01 07:07:00,25.9,14.3,29.09,North,357,0.0,0.0,61,0.00,,,0.00,VWS V14.00,2013-12-01 12:07:00,
2013-12-01 07:08:00,25.9,14.3,29.09,North,357,0.0,0.0,61,0.00,,,0.00,VWS V14.00,2013-12-01 12:08:00,
2013-12-01 07:09:00,25.9,14.3,29.09,North,357,0.0,0.0,61,0.00,,,0.00,VWS V14.00,2013-12-01 12:09:00,
2013-12-01 07:10:00,25.9,14.3,29.09,North,357,0.0,0.0,61,0.00,,,0.00,VWS V14.00,2013-12-01 12:10:00,
2013-12-01 07:11:00,25.9,14.3,29.09,North,357,0.0,0.0,61,0.00,,,0.00,VWS V14.00,2013-12-01 12:11:00,
2013-12-01 07:12:00,25.9,14.3,29.09,North,357,0.0,0.0,61,0.00,,,0.00,VWS V14.00,2013-12-01 12:12:00,
2013-12-01 07:13:00,25.9,14.3,29.09,North,357,0.0,0.0,61,0.00,,,0.00,VWS V14.00,2013-12-01 12:13:00,
2013-12-01 07:14:00,25.9,14.3,29.09,North,357,0.0,0.0,61,0.00,,,0.00,VWS V14.00,2013-12-01 12:14:00,
2013-12-01 07:15:00,25.9,14.3,29.09,North,357,0.0,0.0,61,0.00,,,0.00,VWS V14.00,2013-12-01 12:15:00,
2013-12-01 07:16:00,25.9,14.3,29.09,North,357,0.0,0.0,61,0.00,,,0.00,VWS V14.00,2013-12-01 12:16:00,
2013-12-01 07:17:00,25.9,14.3,29.09,North,357,0.0,0.0,61,0.00,,,0.00,VWS V14.00,2013-12-01 12:17:00,
2013-12-01 07:18:00,25.9,14.3,29.09,North,357,0.0,0.0,61,0.00,,,0.00,VWS V14.00,2013-12-01 12:18:00,
2013-12-01 07:19:00,25.7,14.1,29.09,North,357,0.0,0.0,61,0.00,,,0.00,VWS V14.00,2013-12-01 12:19:00,
2013-12-01 07:20:00,25.9,14.3,29.09,North,357,0.0,0.0,61,0.00,,,0.00,VWS V14.00,2013-12-01 12:20:00,
2013-12-01 07:21:00,25.7,14.1,29.09,North,357,0.0,0.0,61,0.00,,,0.00,VWS V14.00,2013-12-01 12:21:00,
2013-12-01 07:22:00,25.7,14.1,29.09,North,357,0.0,0.0,61,0.00,,,0.00,VWS V14.00,2013-12-01 12:22:00,
2013-12-01 07:23:00,25.7,14.1,29.09,North,357,0.0,0.0,61,0.00,,,0.00,VWS V14.00,2013-12-01 12:23:00,
2013-12-01 07:24:00,25.7,14.1,29.09,North,357,0.0,0.0,61,0.00,,,0.00,VWS V14.00,2013-12-01 12:24:00,
2013-12-01 07:25:00,25.7,14.1,29.09,North,357,0.0,0.0,61,0.00,,,0.00,VWS V14.00,2013-12-01 12:25:00,
2013-12-01 07:26:00,25.7,14.1,29.09,North,357,0.0,0.0,61,0.00,,,0.00,VWS V14.00,2013-12-01 12:26:00,
2013-12-01 07:27:00,25.7,14.1,29.09,North,357,0.0,0.0,61,0.00,,,0.00,VWS V14.00,2013-12-01 12:27:00,
2013-12-01 07:28:00,25.7,14.1,29.09,North,357,0.0,0.0,61,0.00,,,0.00,VWS V14.00,2013-12-01 12:28:00,
2013-12-01 07:29:00,25.7,14.1,29.09,North,357,0.0,0.0,61,0.00,,,0.00,VWS V14.00,2013-12-01 12:29:00,
2013-12-01 07:30:00,25.7,14.1,29.09,North,357,0.0,0.0,61,0.00,,,0.00,VWS V14.00,2013-12-01 12:30:00,
2013-12-01 07:31:00,25.7,14.1,29.09,North,357,0.0,0.0,61,0.00,,,0.00,VWS V14.00,2013-12-01 12:31:00,
2013-12-01 07:32:00,25.7,14.1,29.09,North,357,0.0,0.0,61,0.00,,,0.00,VWS V14.00,2013-12-01 12:32:00,
2013-12-01 07:33:00,25.7,14.1,29.09,North,357,0.0,0.0,61,0.00,,,0.00,VWS V14.00,2013-12-01 12:33:00,
2013-12-01 07:34:00,25.7,14.1,29.09,North,357,0.0,0.0,61,0.00,,,0.00,VWS V14.00,2013-12-01 12:34:00,
2013-12-01 07:35:00,25.7,14.1,29.09,North,357,0.0,0.0,61,0.00,,,0.00,VWS V14.00,2013-12-01 12:35:00,
2013-12-01 07:36:00,25.7,14.1,29.09,North,357,0.0,0.0,61,0.00,,,0.00,VWS V14.00,2013-12-01 12:36:00,
2013-12-01 07:37:00,25.7,14.5,29.09,North,357,0.0,0.0,62,0.00,,,0.00,VWS V14.00,2013-12-01 12:37:00,
2013-12-01 07:38:00,25.9,14.7,29.09,North,357,0.0,0.0,62,0.00,,,0.00,VWS V14.00,2013-12-01 12:38:00,
2013-12-01 07:39:00,25.9,14.7,29.09,North,357,0.0,0.0,62,0.00,,,0.00,VWS V14.00,2013-12-01 12:39:00,
2013-12-01 07:40:00,25.7,14.5,29.09,North,357,0.0,0.0,62,0.00,,,0.00,VWS V14.00,2013-12-01 12:40:00,
2013-12-01 07:41:00,25.9,14.7,29.09,North,357,0.0,0.0,62,0.00,,,0.00,VWS V14.00,2013-12-01 12:41:00,
2013-12-01 07:42:00,25.9,14.7,29.09,North,357,0.0,0.0,62,0.00,,,0.00,VWS V14.00,2013-12-01 12:42:00,
2013-12-01 07:43:00,25.9,14.7,29.09,North,357,0.0,0.0,62,0.00,,,0.00,VWS V14.00,2013-12-01 12:43:00,
2013-12-01 07:44:00,25.9,14.7,29.09,North,357,0.0,0.0,62,0.00,,,0.00,VWS V14.00,2013-12-01 12:44:00,
2013-12-01 07:45:00,25.9,14.7,29.09,North,357,0.0,0.0,62,0.00,,,0.00,VWS V14.00,2013-12-01 12:45:00,
2013-12-01 07:46:00,26.1,14.8,29.09,North,357,0.0,0.0,62,0.00,,,0.00,VWS V14.00,2013-12-01 12:46:00,
2013-12-01 07:47:00,26.1,14.8,29.09,North,357,0.0,0.0,62,0.00,,,0.00,VWS V14.00,2013-12-01 12:47:00,
2013-12-01 07:48:00,26.1,14.8,29.09,North,357,0.0,0.0,62,0.00,,,0.00,VWS V14.00,2013-12-01 12:48:00,
2013-12-01 07:49:00,26.1,14.8,29.09,North,357,0.0,0.0,62,0.00,,,0.00,VWS V14.00,2013-12-01 12:49:00,
2013-12-01 07:50:00,26.1,14.8,29.09,North,357,0.0,0.0,62,0.00,,,0.00,VWS V14.00,2013-12-01 12:50:00,
2013-12-01 07:51:00,26.1,14.8,29.09,North,357,0.0,0.0,62,0.00,,,0.00,VWS V14.00,2013-12-01 12:51:00,
2013-12-01 07:52:00,26.1,14.8,29.09,North,357,0.0,0.0,62,0.00,,,0.00,VWS V14.00,2013-12-01 12:52:00,
2013-12-01 07:53:00,26.1,14.8,29.09,North,357,0.0,0.0,62,0.00,,,0.00,VWS V14.00,2013-12-01 12:53:00,
2013-12-01 07:54:00,26.2,15.0,29.09,North,357,0.0,0.0,62,0.00,,,0.00,VWS V14.00,2013-12-01 12:54:00,
2013-12-01 07:55:00,26.1,14.8,29.09,North,357,0.0,0.0,62,0.00,,,0.00,VWS V14.00,2013-12-01 12:55:00,
2013-12-01 07:56:00,26.2,15.0,29.09,North,357,0.0,0.0,62,0.00,,,0.00,VWS V14.00,2013-12-01 12:56:00,
2013-12-01 07:57:00,26.2,15.0,29.09,North,357,0.0,0.0,62,0.00,,,0.00,VWS V14.00,2013-12-01 12:57:00,
2013-12-01 07:58:00,26.2,15.0,29.09,North,357,0.0,0.0,62,0.00,,,0.00,VWS V14.00,2013-12-01 12:58:00,
2013-12-01 07:59:00,26.2,15.0,29.09,North,357,0.0,0.0,62,0.00,,,0.00,VWS V14.00,2013-12-01 12:59:00,
2013-12-01 08:00:00,26.2,15.0,29.09,North,357,0.0,0.0,62,0.00,,,0.00,VWS V14.00,2013-12-01 13:00:00,
2013-12-01 08:01:00,26.4,15.2,29.09,North,357,0.0,0.0,62,0.00,,,0.00,VWS V14.00,2013-12-01 13:01:00,
2013-12-01 08:02:00,26.4,15.2,29.09,North,357,0.0,0.0,62,0.00,,,0.00,VWS V14.00,2013-12-01 13:02:00,
2013-12-01 08:03:00,26.4,15.2,29.09,North,357,0.0,0.0,62,0.00,,,0.00,VWS V14.00,2013-12-01 13:03:00,
2013-12-01 08:04:00,26.4,15.2,29.09,North,357,0.0,0.0,62,0.00,,,0.00,VWS V14.00,2013-12-01 13:04:00,
2013-12-01 08:05:00,26.4,15.2,29.09,North,357,0.0,0.0,62,0.00,,,0.00,VWS V14.00,2013-12-01 13:05:00,
2013-12-01 08:06:00,26.6,15.4,29.09,North,357,0.0,0.0,62,0.00,,,0.00,VWS V14.00,2013-12-01 13:06:00,
2013-12-01 08:07:00,26.6,15.4,29.09,North,357,0.0,0.0,62,0.00,,,0.00,VWS V14.00,2013-12-01 13:07:00,
2013-12-01 08:08:00,26.8,15.5,29.09,North,357,0.0,0.0,62,0.00,,,0.00,VWS V14.00,2013-12-01 13:08:00,
2013-12-01 08:09:00,26.8,15.5,29.09,North,357,0.0,0.0,62,0.00,,,0.00,VWS V14.00,2013-12-01 13:09:00,
2013-12-01 08:10:00,26.6,15.4,29.09,North,357,0.0,0.0,62,0.00,,,0.00,VWS V14.00,2013-12-01 13:10:00,
2013-12-01 08:11:00,27.0,15.7,29.09,North,357,0.0,0.0,62,0.00,,,0.00,VWS V14.00,2013-12-01 13:11:00,
2013-12-01 08:12:00,27.0,15.7,29.09,North,357,0.0,0.0,62,0.00,,,0.00,VWS V14.00,2013-12-01 13:12:00,
2013-12-01 08:13:00,27.0,15.7,29.09,North,357,0.0,0.0,62,0.00,,,0.00,VWS V14.00,2013-12-01 13:13:00,
2013-12-01 08:14:00,27.0,15.7,29.09,North,357,0.0,0.0,62,0.00,,,0.00,VWS V14.00,2013-12-01 13:14:00,
2013-12-01 08:15:00,27.0,15.7,29.09,North,357,0.0,0.0,62,0.00,,,0.00,VWS V14.00,2013-12-01 13:15:00,
2013-12-01 08:16:00,27.1,15.9,29.09,North,357,0.0,0.0,62,0.00,,,0.00,VWS V14.00,2013-12-01 13:16:00,
2013-12-01 08:17:00,27.1,15.9,29.09,North,357,0.0,0.0,62,0.00,,,0.00,VWS V14.00,2013-12-01 13:17:00,
2013-12-01 08:18:00,27.3,16.0,29.09,North,357,0.0,0.0,62,0.00,,,0.00,VWS V14.00,2013-12-01 13:18:00,
2013-12-01 08:19:00,27.3,16.4,29.09,North,357,0.0,0.0,63,0.00,,,0.00,VWS V14.00,2013-12-01 13:19:00,
2013-12-01 08:20:00,27.1,15.9,29.09,North,357,0.0,0.0,62,0.00,,,0.00,VWS V14.00,2013-12-01 13:20:00,
2013-12-01 08:21:00,27.5,16.6,29.09,North,357,0.0,0.0,63,0.00,,,0.00,VWS V14.00,2013-12-01 13:21:00,
2013-12-01 08:22:00,27.7,16.7,29.09,North,357,0.0,0.0,63,0.00,,,0.00,VWS V14.00,2013-12-01 13:22:00,
2013-12-01 08:23:00,27.7,16.7,29.06,North,357,0.0,0.0,63,0.00,,,0.00,VWS V14.00,2013-12-01 13:23:00,
2013-12-01 08:24:00,27.7,16.7,29.06,North,357,0.0,0.0,63,0.00,,,0.00,VWS V14.00,2013-12-01 13:24:00,
2013-12-01 08:25:00,27.7,16.7,29.09,North,357,0.0,0.0,63,0.00,,,0.00,VWS V14.00,2013-12-01 13:25:00,
2013-12-01 08:26:00,27.9,16.9,29.06,North,357,0.0,0.0,63,0.00,,,0.00,VWS V14.00,2013-12-01 13:26:00,
2013-12-01 08:27:00,28.0,17.1,29.06,North,357,0.0,0.0,63,0.00,,,0.00,VWS V14.00,2013-12-01 13:27:00,
2013-12-01 08:28:00,28.0,17.1,29.06,North,357,0.0,0.0,63,0.00,,,0.00,VWS V14.00,2013-12-01 13:28:00,
2013-12-01 08:29:00,28.2,17.6,29.06,North,357,0.0,0.0,64,0.00,,,0.00,VWS V14.00,2013-12-01 13:29:00,
2013-12-01 08:30:00,28.0,17.1,29.06,North,357,0.0,0.0,63,0.00,,,0.00,VWS V14.00,2013-12-01 13:30:00,
2013-12-01 08:31:00,28.4,17.8,29.06,North,357,0.0,0.0,64,0.00,,,0.00,VWS V14.00,2013-12-01 13:31:00,
2013-12-01 08:32:00,28.6,18.0,29.06,North,357,0.0,0.0,64,0.00,,,0.00,VWS V14.00,2013-12-01 13:32:00,
2013-12-01 08:33:00,28.6,18.0,29.06,North,357,0.0,0.0,64,0.00,,,0.00,VWS V14.00,2013-12-01 13:33:00,
2013-12-01 08:34:00,28.8,18.1,29.06,North,357,0.0,0.0,64,0.00,,,0.00,VWS V14.00,2013-12-01 13:34:00,
2013-12-01 08:35:00,28.6,18.0,29.06,North,357,0.0,0.0,64,0.00,,,0.00,VWS V14.00,2013-12-01 13:35:00,
2013-12-01 08:36:00,29.1,18.5,29.06,North,357,0.0,0.0,64,0.00,,,0.00,VWS V14.00,2013-12-01 13:36:00,
2013-12-01 08:37:00,29.1,18.5,29.06,North,357,0.0,0.0,64,0.00,,,0.00,VWS V14.00,2013-12-01 13:37:00,
2013-12-01 08:38:00,29.3,18.6,29.06,North,357,0.0,0.0,64,0.00,,,0.00,VWS V14.00,2013-12-01 13:38:00,
2013-12-01 08:39:00,29.3,18.6,29.06,North,357,0.0,0.0,64,0.00,,,0.00,VWS V14.00,2013-12-01 13:39:00,
2013-12-01 08:40:00,29.1,18.5,29.06,North,357,0.0,0.0,64,0.00,,,0.00,VWS V14.00,2013-12-01 13:40:00,
2013-12-01 08:41:00,29.7,19.0,29.06,North,357,0.0,0.0,64,0.00,,,0.00,VWS V14.00,2013-12-01 13:41:00,
2013-12-01 08:42:00,29.7,19.0,29.06,North,357,0.0,0.0,64,0.00,,,0.00,VWS V14.00,2013-12-01 13:42:00,
2013-12-01 08:43:00,29.8,19.2,29.06,North,357,0.0,0.0,64,0.00,,,0.00,VWS V14.00,2013-12-01 13:43:00,
2013-12-01 08:44:00,29.8,19.2,29.06,North,357,0.0,0.0,64,0.00,,,0.00,VWS V14.00,2013-12-01 13:44:00,
2013-12-01 08:45:00,29.7,19.0,29.06,North,357,0.0,0.0,64,0.00,,,0.00,VWS V14.00,2013-12-01 13:45:00,
2013-12-01 08:46:00,30.0,19.3,29.06,North,357,0.0,0.0,64,0.00,,,0.00,VWS V14.00,2013-12-01 13:46:00,
2013-12-01 08:47:00,30.2,19.9,29.06,North,357,0.0,0.0,65,0.00,,,0.00,VWS V14.00,2013-12-01 13:47:00,
2013-12-01 08:48:00,30.2,19.9,29.06,North,357,0.0,0.0,65,0.00,,,0.00,VWS V14.00,2013-12-01 13:48:00,
2013-12-01 08:49:00,30.4,19.7,29.06,North,357,0.0,0.0,64,0.00,,,0.00,VWS V14.00,2013-12-01 13:49:00,
2013-12-01 08:50:00,30.2,19.9,29.06,North,357,0.0,0.0,65,0.00,,,0.00,VWS V14.00,2013-12-01 13:50:00,
2013-12-01 08:51:00,30.6,19.9,29.06,North,357,0.0,0.0,64,0.00,,,0.00,VWS V14.00,2013-12-01 13:51:00,
2013-12-01 08:52:00,30.7,20.4,29.06,North,357,0.0,0.0,65,0.00,,,0.00,VWS V14.00,2013-12-01 13:52:00,
2013-12-01 08:53:00,30.7,20.4,29.06,North,357,0.0,0.0,65,0.00,,,0.00,VWS V14.00,2013-12-01 13:53:00,
2013-12-01 08:54:00,30.9,20.5,29.06,North,357,0.0,0.0,65,0.00,,,0.00,VWS V14.00,2013-12-01 13:54:00,
2013-12-01 08:55:00,30.7,20.4,29.06,North,357,0.0,0.0,65,0.00,,,0.00,VWS V14.00,2013-12-01 13:55:00,
2013-12-01 08:56:00,31.1,20.7,29.06,North,357,0.0,0.0,65,0.00,,,0.00,VWS V14.00,2013-12-01 13:56:00,
2013-12-01 08:57:00,31.1,20.7,29.06,North,357,0.0,0.0,65,0.00,,,0.00,VWS V14.00,2013-12-01 13:57:00,
2013-12-01 08:58:00,31.1,20.7,29.06,North,357,0.0,0.0,65,0.00,,,0.00,VWS V14.00,2013-12-01 13:58:00,
2013-12-01 08:59:00,31.1,20.7,29.06,North,357,0.0,0.0,65,0.00,,,0.00,VWS V14.00,2013-12-01 13:59:00,
2013-12-01 09:00:00,31.1,20.7,29.06,North,357,0.0,0.0,65,0.00,,,0.00,VWS V14.00,2013-12-01 14:00:00,
2013-12-01 09:01:00,31.5,21.1,29.06,North,357,0.0,0.0,65,0.00,,,0.00,VWS V14.00,2013-12-01 14:01:00,
2013-12-01 09:02:00,31.6,21.2,29.06,North,357,0.0,0.0,65,0.00,,,0.00,VWS V14.00,2013-12-01 14:02:00,
2013-12-01 09:03:00,31.6,21.2,29.06,North,357,0.0,0.0,65,0.00,,,0.00,VWS V14.00,2013-12-01 14:03:00,
2013-12-01 09:04:00,31.6,21.2,29.06,North,357,0.0,0.0,65,0.00,,,0.00,VWS V14.00,2013-12-01 14:04:00,
2013-12-01 09:05:00,31.5,21.1,29.06,North,357,0.0,0.0,65,0.00,,,0.00,VWS V14.00,2013-12-01 14:05:00,
2013-12-01 09:06:00,31.6,21.2,29.06,North,357,0.0,0.0,65,0.00,,,0.00,VWS V14.00,2013-12-01 14:06:00,
2013-12-01 09:07:00,32.0,21.9,29.06,North,357,0.0,0.0,66,0.00,,,0.00,VWS V14.00,2013-12-01 14:07:00,
2013-12-01 09:08:00,32.2,22.1,29.06,North,357,0.0,0.0,66,0.00,,,0.00,VWS V14.00,2013-12-01 14:08:00,
2013-12-01 09:09:00,32.2,22.1,29.06,North,357,0.0,0.0,66,0.00,,,0.00,VWS V14.00,2013-12-01 14:09:00,
2013-12-01 09:10:00,32.0,21.9,29.06,North,357,0.0,0.0,66,0.00,,,0.00,VWS V14.00,2013-12-01 14:10:00,
2013-12-01 09:11:00,32.5,22.5,29.06,North,357,0.0,0.0,66,0.00,,,0.00,VWS V14.00,2013-12-01 14:11:00,
2013-12-01 09:12:00,32.5,22.5,29.06,North,357,0.0,0.0,66,0.00,,,0.00,VWS V14.00,2013-12-01 14:12:00,
2013-12-01 09:13:00,32.7,22.6,29.06,North,357,0.0,0.0,66,0.00,,,0.00,VWS V14.00,2013-12-01 14:13:00,
2013-12-01 09:14:00,32.7,22.6,29.06,North,357,0.0,0.0,66,0.00,,,0.00,VWS V14.00,2013-12-01 14:14:00,
2013-12-01 09:15:00,32.5,22.5,29.06,North,357,0.0,0.0,66,0.00,,,0.00,VWS V14.00,2013-12-01 14:15:00,
2013-12-01 09:16:00,32.9,23.2,29.06,North,357,0.0,0.0,67,0.00,,,0.00,VWS V14.00,2013-12-01 14:16:00,
2013-12-01 09:17:00,32.9,23.2,29.06,WSW,240,2.2,2.7,67,0.00,,,0.00,VWS V14.00,2013-12-01 14:17:00,
2013-12-01 09:18:00,33.1,23.3,29.06,WSW,240,2.7,3.6,67,0.00,,,0.00,VWS V14.00,2013-12-01 14:18:00,
2013-12-01 09:19:00,33.1,23.3,29.06,WSW,240,2.2,2.7,67,0.00,,,0.00,VWS V14.00,2013-12-01 14:19:00,
2013-12-01 09:20:00,32.9,23.2,29.06,WSW,240,2.2,2.7,67,0.00,,,0.00,VWS V14.00,2013-12-01 14:20:00,
2013-12-01 09:21:00,33.3,23.5,29.06,WSW,255,2.7,3.6,67,0.00,,,0.00,VWS V14.00,2013-12-01 14:21:00,
2013-12-01 09:22:00,33.4,23.7,29.06,WSW,254,0.0,2.7,67,0.00,,,0.00,VWS V14.00,2013-12-01 14:22:00,
2013-12-01 09:23:00,33.4,23.7,29.06,WSW,254,0.0,0.0,67,0.00,,,0.00,VWS V14.00,2013-12-01 14:23:00,
2013-12-01 09:24:00,33.4,23.7,29.06,WSW,251,3.6,3.6,67,0.00,,,0.00,VWS V14.00,2013-12-01 14:24:00,
2013-12-01 09:25:00,33.4,23.7,29.06,WSW,254,0.0,2.7,67,0.00,,,0.00,VWS V14.00,2013-12-01 14:25:00,
2013-12-01 09:26:00,34.0,23.8,29.06,WSW,245,0.0,2.7,66,0.00,,,0.00,VWS V14.00,2013-12-01 14:26:00,
2013-12-01 09:27:00,34.0,23.8,29.06,WSW,245,0.0,2.2,66,0.00,,,0.00,VWS V14.00,2013-12-01 14:27:00,
2013-12-01 09:28:00,34.2,24.0,29.06,WSW,245,0.0,0.0,66,0.00,,,0.00,VWS V14.00,2013-12-01 14:28:00,
2013-12-01 09:29:00,34.2,24.0,29.06,WSW,245,0.0,0.0,66,0.00,,,0.00,VWS V14.00,2013-12-01 14:29:00,
2013-12-01 09:30:00,34.0,23.8,29.06,WSW,245,2.2,2.2,66,0.00,,,0.00,VWS V14.00,2013-12-01 14:30:00,
2013-12-01 09:31:00,34.5,24.4,29.06,WSW,245,0.0,0.0,66,0.00,,,0.00,VWS V14.00,2013-12-01 14:31:00,
2013-12-01 09:32:00,34.5,24.4,29.06,WSW,245,0.0,0.0,66,0.00,,,0.00,VWS V14.00,2013-12-01 14:32:00,
2013-12-01 09:33:00,34.5,24.4,29.06,SW,233,2.7,2.7,66,0.00,,,0.00,VWS V14.00,2013-12-01 14:33:00,
2013-12-01 09:34:00,34.9,24.3,29.06,SW,233,0.0,2.7,65,0.00,,,0.00,VWS V14.00,2013-12-01 14:34:00,
2013-12-01 09:35:00,34.5,24.4,29.06,WSW,245,0.0,0.0,66,0.00,,,0.00,VWS V14.00,2013-12-01 14:35:00,
2013-12-01 09:36:00,35.1,24.5,29.06,WSW,241,2.7,3.1,65,0.00,,,0.00,VWS V14.00,2013-12-01 14:36:00,
2013-12-01 09:37:00,35.2,24.7,29.06,WSW,241,0.0,2.7,65,0.00,,,0.00,VWS V14.00,2013-12-01 14:37:00,
2013-12-01 09:38:00,35.4,24.5,29.06,WSW,241,2.7,2.7,64,0.00,,,0.00,VWS V14.00,2013-12-01 14:38:00,
2013-12-01 09:39:00,35.6,24.3,29.06,SW,236,0.0,3.6,63,0.00,,,0.00,VWS V14.00,2013-12-01 14:39:00,
2013-12-01 09:40:00,35.2,24.7,29.06,WSW,241,2.2,2.7,65,0.00,,,0.00,VWS V14.00,2013-12-01 14:40:00,
2013-12-01 09:41:00,35.8,24.0,29.06,SW,232,0.0,0.0,62,0.00,,,0.00,VWS V14.00,2013-12-01 14:41:00,
2013-12-01 09:42:00,36.0,24.2,29.06,SW,232,0.0,0.0,62,0.00,,,0.00,VWS V14.00,2013-12-01 14:42:00,
2013-12-01 09:43:00,36.0,23.8,29.06,SW,232,0.0,0.0,61,0.00,,,0.00,VWS V14.00,2013-12-01 14:43:00,
2013-12-01 09:44:00,36.1,24.0,29.06,SW,232,0.0,0.0,61,0.00,,,0.00,VWS V14.00,2013-12-01 14:44:00,
2013-12-01 09:45:00,35.8,24.0,29.06,SW,232,0.0,0.0,62,0.00,,,0.00,VWS V14.00,2013-12-01 14:45:00,
2013-12-01 09:46:00,36.3,24.2,29.06,WSW,242,0.0,0.0,61,0.00,,,0.00,VWS V14.00,2013-12-01 14:46:00,
2013-12-01 09:47:00,36.5,24.0,29.06,WSW,253,0.0,0.0,60,0.00,,,0.00,VWS V14.00,2013-12-01 14:47:00,
2013-12-01 09:48:00,36.7,24.1,29.06,WSW,253,0.0,0.0,60,0.00,,,0.00,VWS V14.00,2013-12-01 14:48:00,
2013-12-01 09:49:00,36.9,24.3,29.06,WSW,253,0.0,0.0,60,0.00,,,0.00,VWS V14.00,2013-12-01 14:49:00,
2013-12-01 09:50:00,36.5,24.0,29.06,WSW,253,0.0,0.0,60,0.00,,,0.00,VWS V14.00,2013-12-01 14:50:00,
2013-12-01 09:51:00,37.0,24.1,29.06,SSW,198,0.0,3.6,59,0.00,,,0.00,VWS V14.00,2013-12-01 14:51:00,
2013-12-01 09:52:00,37.0,24.1,29.06,SW,217,0.0,0.0,59,0.00,,,0.00,VWS V14.00,2013-12-01 14:52:00,
2013-12-01 09:53:00,37.2,24.2,29.06,SW,217,0.0,0.0,59,0.00,,,0.00,VWS V14.00,2013-12-01 14:53:00,
2013-12-01 09:54:00,37.4,24.0,29.06,SW,217,0.0,0.0,58,0.00,,,0.00,VWS V14.00,2013-12-01 14:54:00,
2013-12-01 09:55:00,37.0,24.1,29.06,SW,217,0.0,0.0,59,0.00,,,0.00,VWS V14.00,2013-12-01 14:55:00,
2013-12-01 10:06:00,38.3,23.6,29.06,WSW,238,0.0,0.0,55,0.00,,,0.00,VWS V14.00,2013-12-01 15:06:00,
2013-12-01 10:11:00,38.8,23.6,29.06,WSW,238,0.0,0.0,54,0.00,,,0.00,VWS V14.00,2013-12-01 15:11:00,
2013-12-01 10:16:00,39.4,23.7,29.06,SW,234,2.7,2.7,53,0.00,,,0.00,VWS V14.00,2013-12-01 15:16:00,
2013-12-01 10:21:00,39.9,23.3,29.06,SSE,166,0.0,0.0,51,0.00,,,0.00,VWS V14.00,2013-12-01 15:21:00,
2013-12-01 10:26:00,40.6,23.5,29.06,SW,227,0.0,0.0,50,0.00,,,0.00,VWS V14.00,2013-12-01 15:26:00,
2013-12-01 10:31:00,41.2,23.5,29.06,SW,227,0.0,0.0,49,0.00,,,0.00,VWS V14.00,2013-12-01 15:31:00,
2013-12-01 10:36:00,41.5,23.3,29.06,WSW,257,0.0,0.0,48,0.00,,,0.00,VWS V14.00,2013-12-01 15:36:00,
2013-12-01 10:41:00,42.1,22.8,29.06,South,173,2.7,4.0,46,0.00,,,0.00,VWS V14.00,2013-12-01 15:41:00,
2013-12-01 10:46:00,42.8,23.0,29.06,WSW,244,3.1,3.6,45,0.00,,,0.00,VWS V14.00,2013-12-01 15:46:00,
2013-12-01 10:51:00,43.2,21.6,29.06,WSW,256,4.0,4.0,42,0.00,,,0.00,VWS V14.00,2013-12-01 15:51:00,
2013-12-01 10:56:00,43.7,21.6,29.06,SW,222,2.7,3.1,41,0.00,,,0.00,VWS V14.00,2013-12-01 15:56:00,
2013-12-01 11:01:00,44.4,22.2,29.03,SSE,161,2.7,3.6,41,0.00,,,0.00,VWS V14.00,2013-12-01 16:01:00,
2013-12-01 11:06:00,45.0,22.1,29.03,NNW,343,2.7,3.6,40,0.00,,,0.00,VWS V14.00,2013-12-01 16:06:00,
2013-12-01 11:11:00,45.3,21.8,29.03,SSW,209,2.7,4.0,39,0.00,,,0.00,VWS V14.00,2013-12-01 16:11:00,
2013-12-01 11:16:00,45.9,22.9,29.03,South,169,2.7,4.0,40,0.00,,,0.00,VWS V14.00,2013-12-01 16:16:00,
2013-12-01 11:21:00,46.2,22.6,29.03,West,278,5.8,5.8,39,0.00,,,0.00,VWS V14.00,2013-12-01 16:21:00,
2013-12-01 11:26:00,46.4,22.8,29.03,WSW,239,4.5,5.8,39,0.00,,,0.00,VWS V14.00,2013-12-01 16:26:00,
2013-12-01 11:31:00,46.6,23.0,29.03,West,265,2.2,3.1,39,0.00,,,0.00,VWS V14.00,2013-12-01 16:31:00,
2013-12-01 11:36:00,47.1,22.8,29.03,WSW,252,2.7,2.7,38,0.00,,,0.00,VWS V14.00,2013-12-01 16:36:00,
2013-12-01 11:41:00,47.3,23.0,29.03,WSW,253,4.0,4.0,38,0.00,,,0.00,VWS V14.00,2013-12-01 16:41:00,
2013-12-01 11:46:00,47.7,23.3,29.00,WSW,239,2.7,2.7,38,0.00,,,0.00,VWS V14.00,2013-12-01 16:46:00,
2013-12-01 11:51:00,47.8,23.5,29.00,WNW,301,2.2,5.8,38,0.00,,,0.00,VWS V14.00,2013-12-01 16:51:00,
2013-12-01 11:56:00,48.2,23.8,29.00,WSW,239,3.1,5.4,38,0.00,,,0.00,VWS V14.00,2013-12-01 16:56:00,
2013-12-01 12:01:00,48.6,23.5,29.00,SSW,205,3.6,5.8,37,0.00,,,0.00,VWS V14.00,2013-12-01 17:01:00,
2013-12-01 12:06:00,48.7,23.6,29.00,SW,229,3.1,3.1,37,0.00,,,0.00,VWS V14.00,2013-12-01 17:06:00,
2013-12-01 12:11:00,48.9,23.8,29.00,WSW,242,6.7,6.7,37,0.00,,,0.00,VWS V14.00,2013-12-01 17:11:00,
2013-12-01 12:16:00,49.1,24.0,29.00,SSW,198,0.0,2.2,37,0.00,,,0.00,VWS V14.00,2013-12-01 17:16:00,
2013-12-01 12:21:00,49.3,24.1,29.00,WSW,258,4.0,5.8,37,0.00,,,0.00,VWS V14.00,2013-12-01 17:21:00,
2013-12-01 12:26:00,49.5,24.3,29.00,SW,235,3.1,3.1,37,0.00,,,0.00,VWS V14.00,2013-12-01 17:26:00,
2013-12-01 12:31:00,49.6,24.5,29.00,SW,230,3.1,3.1,37,0.00,,,0.00,VWS V14.00,2013-12-01 17:31:00,
2013-12-01 12:36:00,50.2,24.9,29.00,WSW,252,2.7,4.0,37,0.00,,,0.00,VWS V14.00,2013-12-01 17:36:00,
2013-12-01 12:41:00,50.2,24.9,29.00,West,272,3.6,4.0,37,0.00,,,0.00,VWS V14.00,2013-12-01 17:41:00,
2013-12-01 12:46:00,50.5,25.2,28.97,WNW,302,4.0,4.0,37,0.00,,,0.00,VWS V14.00,2013-12-01 17:46:00,
2013-12-01 12:51:00,50.7,25.4,28.97,South,186,2.2,3.6,37,0.00,,,0.00,VWS V14.00,2013-12-01 17:51:00,
2013-12-01 12:56:00,50.7,25.4,28.97,WNW,291,0.0,0.0,37,0.00,,,0.00,VWS V14.00,2013-12-01 17:56:00,
2013-12-01 13:01:00,51.1,25.7,28.97,WSW,245,3.1,4.0,37,0.00,,,0.00,VWS V14.00,2013-12-01 18:01:00,
2013-12-01 13:06:00,51.3,25.9,28.97,ESE,121,0.0,0.0,37,0.00,,,0.00,VWS V14.00,2013-12-01 18:06:00,
2013-12-01 13:11:00,51.4,26.0,28.97,WNW,302,2.7,3.1,37,0.00,,,0.00,VWS V14.00,2013-12-01 18:11:00,
2013-12-01 13:16:00,51.8,25.7,28.94,WSW,246,3.1,5.8,36,0.00,,,0.00,VWS V14.00,2013-12-01 18:16:00,
2013-12-01 13:20:00,52.2,26.0,28.94,NNW,337,0.0,0.0,36,0.00,,,0.00,VWS V14.00,2013-12-01 18:20:00,
2013-12-01 13:25:00,52.2,26.0,28.94,ENE,74,2.7,2.7,36,0.00,,,0.00,VWS V14.00,2013-12-01 18:25:00,
2013-12-01 13:30:00,52.2,26.0,28.94,WSW,246,3.6,3.6,36,0.00,,,0.00,VWS V14.00,2013-12-01 18:30:00,
2013-12-01 13:35:00,52.5,26.4,28.94,WSW,256,3.1,4.5,36,0.00,,,0.00,VWS V14.00,2013-12-01 18:35:00,
2013-12-01 13:40:00,52.9,26.7,28.94,NW,308,4.0,4.0,36,0.00,,,0.00,VWS V14.00,2013-12-01 18:40:00,
2013-12-01 13:45:00,53.1,26.8,28.94,NE,48,2.7,2.7,36,0.00,,,0.00,VWS V14.00,2013-12-01 18:45:00,
2013-12-01 13:50:00,53.1,26.8,28.94,WSW,238,2.7,2.7,36,0.00,,,0.00,VWS V14.00,2013-12-01 18:50:00,
2013-12-01 13:55:00,53.2,27.0,28.94,SSW,200,2.2,2.2,36,0.00,,,0.00,VWS V14.00,2013-12-01 18:55:00,
2013-12-01 14:00:00,53.4,27.1,28.91,NW,324,0.0,0.0,36,0.00,,,0.00,VWS V14.00,2013-12-01 19:00:00,
2013-12-01 14:05:00,53.6,27.3,28.91,North,3,0.0,0.0,36,0.00,,,0.00,VWS V14.00,2013-12-01 19:05:00,
2013-12-01 14:10:00,53.8,27.5,28.91,NW,309,0.0,0.0,36,0.00,,,0.00,VWS V14.00,2013-12-01 19:10:00,
2013-12-01 14:15:00,53.8,27.5,28.91,WNW,283,3.6,3.6,36,0.00,,,0.00,VWS V14.00,2013-12-01 19:15:00,
2013-12-01 14:20:00,53.8,27.5,28.91,SSW,200,0.0,0.0,36,0.00,,,0.00,VWS V14.00,2013-12-01 19:20:00,
2013-12-01 14:25:00,53.8,27.5,28.91,NNW,332,2.7,3.1,36,0.00,,,0.00,VWS V14.00,2013-12-01 19:25:00,
2013-12-01 14:30:00,54.0,27.6,28.91,West,276,3.6,3.6,36,0.00,,,0.00,VWS V14.00,2013-12-01 19:30:00,
2013-12-01 14:35:00,54.1,27.8,28.91,SSE,154,0.0,0.0,36,0.00,,,0.00,VWS V14.00,2013-12-01 19:35:00,
2013-12-01 14:38:00,54.1,27.8,28.91,South,175,0.0,0.0,36,0.00,,,0.00,VWS V14.00,2013-12-01 19:38:00,
2013-12-01 14:43:00,54.1,27.8,28.91,WSW,238,2.7,2.7,36,0.00,,,0.00,VWS V14.00,2013-12-01 19:43:00,
2013-12-01 14:48:00,54.3,28.0,28.91,SW,225,0.0,3.1,36,0.00,,,0.00,VWS V14.00,2013-12-01 19:48:00,
2013-12-01 14:53:00,54.5,28.1,28.91,SSE,164,2.2,2.7,36,0.00,,,0.00,VWS V14.00,2013-12-01 19:53:00,
2013-12-01 14:58:00,54.3,28.0,28.88,WSW,251,0.0,0.0,36,0.00,,,0.00,VWS V14.00,2013-12-01 19:58:00,
2013-12-01 15:03:00,54.3,28.0,28.88,SSW,195,2.2,2.2,36,0.00,,,0.00,VWS V14.00,2013-12-01 20:03:00,
2013-12-01 15:08:00,54.1,27.8,28.88,SE,142,0.0,0.0,36,0.00,,,0.00,VWS V14.00,2013-12-01 20:08:00,
2013-12-01 15:13:00,54.1,27.8,28.88,SSW,199,0.0,0.0,36,0.00,,,0.00,VWS V14.00,2013-12-01 20:13:00,
2013-12-01 15:18:00,54.1,27.8,28.88,SW,214,0.0,0.0,36,0.00,,,0.00,VWS V14.00,2013-12-01 20:18:00,
2013-12-01 15:23:00,54.1,27.8,28.88,WSW,244,0.0,0.0,36,0.00,,,0.00,VWS V14.00,2013-12-01 20:23:00,
2013-12-01 15:28:00,54.1,27.8,28.88,NW,322,0.0,0.0,36,0.00,,,0.00,VWS V14.00,2013-12-01 20:28:00,
2013-12-01 15:33:00,54.1,27.8,28.88,NW,322,0.0,0.0,36,0.00,,,0.00,VWS V14.00,2013-12-01 20:33:00,
2013-12-01 15:38:00,54.0,27.6,28.88,NW,322,0.0,0.0,36,0.00,,,0.00,VWS V14.00,2013-12-01 20:38:00,
2013-12-01 15:43:00,54.0,27.6,28.88,NW,322,0.0,0.0,36,0.00,,,0.00,VWS V14.00,2013-12-01 20:43:00,
2013-12-01 15:48:00,53.8,27.5,28.88,NW,322,0.0,0.0,36,0.00,,,0.00,VWS V14.00,2013-12-01 20:48:00,
2013-12-01 15:53:00,53.6,27.3,28.88,NW,322,0.0,0.0,36,0.00,,,0.00,VWS V14.00,2013-12-01 20:53:00,
2013-12-01 15:58:00,53.6,27.3,28.88,NW,322,0.0,0.0,36,0.00,,,0.00,VWS V14.00,2013-12-01 20:58:00,
2013-12-01 16:03:00,53.2,27.0,28.88,NW,322,0.0,0.0,36,0.00,,,0.00,VWS V14.00,2013-12-01 21:03:00,
2013-12-01 16:08:00,53.2,27.0,28.88,NW,322,0.0,0.0,36,0.00,,,0.00,VWS V14.00,2013-12-01 21:08:00,
2013-12-01 16:13:00,53.1,26.8,28.88,NW,322,0.0,0.0,36,0.00,,,0.00,VWS V14.00,2013-12-01 21:13:00,
2013-12-01 16:18:00,52.9,26.7,28.88,NW,322,0.0,0.0,36,0.00,,,0.00,VWS V14.00,2013-12-01 21:18:00,
2013-12-01 16:23:00,52.5,26.4,28.88,NW,322,0.0,0.0,36,0.00,,,0.00,VWS V14.00,2013-12-01 21:23:00,
2013-12-01 16:28:00,52.2,26.0,28.88,NW,322,0.0,0.0,36,0.00,,,0.00,VWS V14.00,2013-12-01 21:28:00,
2013-12-01 16:33:00,51.8,25.7,28.88,NW,322,0.0,0.0,36,0.00,,,0.00,VWS V14.00,2013-12-01 21:33:00,
2013-12-01 16:38:00,51.4,26.0,28.88,NW,322,0.0,0.0,37,0.00,,,0.00,VWS V14.00,2013-12-01 21:38:00,
2013-12-01 16:43:00,51.1,25.7,28.88,NW,322,0.0,0.0,37,0.00,,,0.00,VWS V14.00,2013-12-01 21:43:00,
2013-12-01 16:48:00,50.7,25.4,28.88,NW,322,0.0,0.0,37,0.00,,,0.00,VWS V14.00,2013-12-01 21:48:00,
2013-12-01 16:53:00,50.2,24.9,28.88,NW,322,0.0,0.0,37,0.00,,,0.00,VWS V14.00,2013-12-01 21:53:00,
2013-12-01 16:58:00,49.6,24.5,28.88,NW,322,0.0,0.0,37,0.00,,,0.00,VWS V14.00,2013-12-01 21:58:00,
2013-12-01 17:03:00,49.1,24.0,28.88,NW,322,0.0,0.0,37,0.00,,,0.00,VWS V14.00,2013-12-01 22:03:00,
2013-12-01 17:08:00,48.7,23.6,28.88,NW,322,0.0,0.0,37,0.00,,,0.00,VWS V14.00,2013-12-01 22:08:00,
2013-12-01 17:13:00,48.4,23.3,28.88,NW,322,0.0,0.0,37,0.00,,,0.00,VWS V14.00,2013-12-01 22:13:00,
2013-12-01 17:18:00,47.7,23.3,28.88,NW,322,0.0,0.0,38,0.00,,,0.00,VWS V14.00,2013-12-01 22:18:00,
2013-12-01 17:23:00,47.5,23.2,28.88,NW,322,0.0,0.0,38,0.00,,,0.00,VWS V14.00,2013-12-01 22:23:00,
2013-12-01 17:28:00,46.6,22.4,28.88,NW,322,0.0,0.0,38,0.00,,,0.00,VWS V14.00,2013-12-01 22:28:00,
2013-12-01 17:33:00,46.0,21.9,28.88,NW,322,0.0,0.0,38,0.00,,,0.00,VWS V14.00,2013-12-01 22:33:00,
2013-12-01 17:38:00,45.5,22.0,28.88,NW,322,0.0,0.0,39,0.00,,,0.00,VWS V14.00,2013-12-01 22:38:00,
2013-12-01 17:43:00,45.1,21.7,28.88,NW,322,0.0,0.0,39,0.00,,,0.00,VWS V14.00,2013-12-01 22:43:00,
2013-12-01 17:48:00,44.4,21.0,28.88,NW,322,0.0,0.0,39,0.00,,,0.00,VWS V14.00,2013-12-01 22:48:00,
2013-12-01 17:53:00,44.1,20.7,28.88,NW,322,0.0,0.0,39,0.00,,,0.00,VWS V14.00,2013-12-01 22:53:00,
2013-12-01 17:58:00,43.5,20.2,28.88,NW,322,0.0,0.0,39,0.00,,,0.00,VWS V14.00,2013-12-01 22:58:00,
2013-12-01 18:03:00,43.2,19.9,28.88,NW,322,0.0,0.0,39,0.00,,,0.00,VWS V14.00,2013-12-01 23:03:00,
2013-12-01 18:08:00,42.8,19.6,28.88,NW,322,0.0,0.0,39,0.00,,,0.00,VWS V14.00,2013-12-01 23:08:00,
2013-12-01 18:13:00,42.4,19.8,28.88,NW,322,0.0,0.0,40,0.00,,,0.00,VWS V14.00,2013-12-01 23:13:00,
2013-12-01 18:18:00,42.3,19.7,28.88,NW,322,0.0,0.0,40,0.00,,,0.00,VWS V14.00,2013-12-01 23:18:00,
2013-12-01 18:23:00,41.7,19.2,28.88,NW,322,0.0,0.0,40,0.00,,,0.00,VWS V14.00,2013-12-01 23:23:00,
2013-12-01 18:28:00,41.5,19.0,28.88,NW,322,0.0,0.0,40,0.00,,,0.00,VWS V14.00,2013-12-01 23:28:00,
2013-12-01 18:33:00,41.2,19.3,28.88,NW,322,0.0,0.0,41,0.00,,,0.00,VWS V14.00,2013-12-01 23:33:00,
2013-12-01 18:38:00,41.0,19.1,28.88,NW,322,0.0,0.0,41,0.00,,,0.00,VWS V14.00,2013-12-01 23:38:00,
2013-12-01 18:43:00,41.0,19.1,28.85,NW,322,0.0,0.0,41,0.00,,,0.00,VWS V14.00,2013-12-01 23:43:00,
2013-12-01 18:48:00,41.0,19.1,28.85,NW,322,0.0,0.0,41,0.00,,,0.00,VWS V14.00,2013-12-01 23:48:00,
2013-12-01 18:53:00,41.0,19.1,28.85,NW,322,0.0,0.0,41,0.00,,,0.00,VWS V14.00,2013-12-01 23:53:00,
2013-12-01 18:58:00,41.2,19.9,28.85,NW,322,0.0,0.0,42,0.00,,,0.00,VWS V14.00,2013-12-01 23:58:00,
2013-12-01 19:03:00,41.4,20.0,28.85,NW,322,0.0,0.0,42,0.00,,,0.00,VWS V14.00,2013-12-02 00:03:00,
2013-12-01 19:08:00,41.4,20.0,28.85,NW,322,0.0,0.0,42,0.00,,,0.00,VWS V14.00,2013-12-02 00:08:00,
2013-12-01 19:13:00,41.5,20.2,28.88,NW,322,0.0,0.0,42,0.00,,,0.00,VWS V14.00,2013-12-02 00:13:00,
2013-12-01 19:18:00,41.7,20.3,28.88,NW,322,0.0,0.0,42,0.00,,,0.00,VWS V14.00,2013-12-02 00:18:00,
2013-12-01 19:23:00,42.1,20.7,28.88,NW,322,0.0,0.0,42,0.00,,,0.00,VWS V14.00,2013-12-02 00:23:00,
2013-12-01 19:28:00,42.3,20.8,28.85,NW,322,0.0,0.0,42,0.00,,,0.00,VWS V14.00,2013-12-02 00:28:00,
2013-12-01 19:33:00,42.3,20.8,28.85,NW,322,0.0,0.0,42,0.00,,,0.00,VWS V14.00,2013-12-02 00:33:00,
2013-12-01 19:38:00,42.6,21.1,28.85,NW,322,0.0,0.0,42,0.00,,,0.00,VWS V14.00,2013-12-02 00:38:00,
2013-12-01 19:43:00,42.6,21.1,28.85,NW,322,0.0,0.0,42,0.00,,,0.00,VWS V14.00,2013-12-02 00:43:00,
2013-12-01 19:48:00,42.4,21.0,28.85,NW,322,0.0,0.0,42,0.00,,,0.00,VWS V14.00,2013-12-02 00:48:00,
2013-12-01 19:53:00,42.3,20.8,28.85,NW,322,0.0,0.0,42,0.00,,,0.00,VWS V14.00,2013-12-02 00:53:00,
2013-12-01 19:58:00,42.1,20.7,28.85,NW,322,0.0,0.0,42,0.00,,,0.00,VWS V14.00,2013-12-02 00:58:00,
2013-12-01 20:03:00,41.9,20.5,28.85,NW,322,0.0,0.0,42,0.00,,,0.00,VWS V14.00,2013-12-02 01:03:00,
2013-12-01 20:08:00,41.7,19.8,28.85,NW,322,0.0,0.0,41,0.00,,,0.00,VWS V14.00,2013-12-02 01:08:00,
2013-12-01 20:13:00,41.4,19.5,28.85,NW,322,0.0,0.0,41,0.00,,,0.00,VWS V14.00,2013-12-02 01:13:00,
2013-12-01 20:18:00,41.0,19.7,28.85,NW,322,0.0,0.0,42,0.00,,,0.00,VWS V14.00,2013-12-02 01:18:00,
2013-12-01 20:23:00,40.6,19.4,28.85,NW,322,0.0,0.0,42,0.00,,,0.00,VWS V14.00,2013-12-02 01:23:00,
2013-12-01 20:28:00,40.3,19.0,28.85,NW,322,0.0,0.0,42,0.00,,,0.00,VWS V14.00,2013-12-02 01:28:00,
2013-12-01 20:33:00,39.9,19.2,28.85,NW,322,0.0,0.0,43,0.00,,,0.00,VWS V14.00,2013-12-02 01:33:00,
2013-12-01 20:38:00,39.7,19.1,28.85,NW,322,0.0,0.0,43,0.00,,,0.00,VWS V14.00,2013-12-02 01:38:00,
2013-12-01 20:43:00,39.6,18.9,28.85,NW,322,0.0,0.0,43,0.00,,,0.00,VWS V14.00,2013-12-02 01:43:00,
2013-12-01 20:48:00,39.2,18.6,28.85,NW,322,0.0,0.0,43,0.00,,,0.00,VWS V14.00,2013-12-02 01:48:00,
2013-12-01 20:53:00,39.0,19.0,28.85,NW,322,0.0,0.0,44,0.00,,,0.00,VWS V14.00,2013-12-02 01:53:00,
2013-12-01 20:58:00,38.8,18.8,28.85,NW,322,0.0,0.0,44,0.00,,,0.00,VWS V14.00,2013-12-02 01:58:00,
2013-12-01 21:03:00,38.5,18.5,28.85,NW,322,0.0,0.0,44,0.00,,,0.00,VWS V14.00,2013-12-02 02:03:00,
2013-12-01 21:08:00,38.1,18.1,28.85,NW,322,0.0,0.0,44,0.00,,,0.00,VWS V14.00,2013-12-02 02:08:00,
2013-12-01 21:13:00,37.9,18.0,28.85,NW,322,0.0,0.0,44,0.00,,,0.00,VWS V14.00,2013-12-02 02:13:00,
2013-12-01 21:18:00,37.8,17.8,28.85,NW,322,0.0,0.0,44,0.00,,,0.00,VWS V14.00,2013-12-02 02:18:00,
2013-12-01 21:23:00,37.6,17.7,28.85,NW,322,0.0,0.0,44,0.00,,,0.00,VWS V14.00,2013-12-02 02:23:00,
2013-12-01 21:28:00,37.6,18.2,28.85,NW,322,0.0,0.0,45,0.00,,,0.00,VWS V14.00,2013-12-02 02:28:00,
2013-12-01 21:33:00,37.2,17.9,28.85,NW,322,0.0,0.0,45,0.00,,,0.00,VWS V14.00,2013-12-02 02:33:00,
2013-12-01 21:38:00,36.9,17.5,28.85,NW,322,0.0,0.0,45,0.00,,,0.00,VWS V14.00,2013-12-02 02:38:00,
2013-12-01 21:43:00,36.7,17.4,28.85,NW,322,0.0,0.0,45,0.00,,,0.00,VWS V14.00,2013-12-02 02:43:00,
2013-12-01 21:48:00,36.3,17.0,28.85,NW,322,0.0,0.0,45,0.00,,,0.00,VWS V14.00,2013-12-02 02:48:00,
2013-12-01 21:53:00,36.3,17.0,28.85,NW,322,0.0,0.0,45,0.00,,,0.00,VWS V14.00,2013-12-02 02:53:00,
2013-12-01 21:58:00,36.1,16.9,28.82,NW,322,0.0,0.0,45,0.00,,,0.00,VWS V14.00,2013-12-02 02:58:00,
2013-12-01 22:03:00,36.0,17.2,28.82,NW,322,0.0,0.0,46,0.00,,,0.00,VWS V14.00,2013-12-02 03:03:00,
2013-12-01 22:08:00,35.8,17.0,28.82,NW,322,0.0,0.0,46,0.00,,,0.00,VWS V14.00,2013-12-02 03:08:00,
2013-12-01 22:13:00,35.6,16.9,28.82,NW,322,0.0,0.0,46,0.00,,,0.00,VWS V14.00,2013-12-02 03:13:00,
2013-12-01 22:18:00,35.4,17.2,28.82,NW,322,0.0,0.0,47,0.00,,,0.00,VWS V14.00,2013-12-02 03:18:00,
2013-12-01 22:23:00,35.2,17.0,28.82,NW,322,0.0,0.0,47,0.00,,,0.00,VWS V14.00,2013-12-02 03:23:00,
2013-12-01 22:28:00,35.2,17.0,28.82,NW,322,0.0,0.0,47,0.00,,,0.00,VWS V14.00,2013-12-02 03:28:00,
2013-12-01 22:33:00,35.2,17.5,28.82,NW,322,0.0,0.0,48,0.00,,,0.00,VWS V14.00,2013-12-02 03:33:00,
2013-12-01 22:38:00,35.1,17.4,28.82,NW,322,0.0,0.0,48,0.00,,,0.00,VWS V14.00,2013-12-02 03:38:00,
2013-12-01 22:43:00,35.1,17.8,28.82,NW,322,0.0,0.0,49,0.00,,,0.00,VWS V14.00,2013-12-02 03:43:00,
2013-12-01 22:48:00,34.9,17.2,28.82,NW,322,0.0,0.0,48,0.00,,,0.00,VWS V14.00,2013-12-02 03:48:00,
2013-12-01 22:53:00,34.9,17.7,28.82,NW,322,0.0,0.0,49,0.00,,,0.00,VWS V14.00,2013-12-02 03:53:00,
2013-12-01 22:58:00,34.7,17.5,28.82,NW,322,0.0,0.0,49,0.00,,,0.00,VWS V14.00,2013-12-02 03:58:00,
2013-12-01 23:03:00,34.5,17.3,28.82,NW,322,0.0,0.0,49,0.00,,,0.00,VWS V14.00,2013-12-02 04:03:00,
2013-12-01 23:08:00,34.3,17.2,28.82,NW,322,0.0,0.0,49,0.00,,,0.00,VWS V14.00,2013-12-02 04:08:00,
2013-12-01 23:13:00,34.2,17.5,28.82,NW,322,0.0,0.0,50,0.00,,,0.00,VWS V14.00,2013-12-02 04:13:00,
2013-12-01 23:18:00,34.2,17.5,28.82,NW,322,0.0,0.0,50,0.00,,,0.00,VWS V14.00,2013-12-02 04:18:00,
2013-12-01 23:23:00,34.2,17.5,28.82,NW,322,0.0,0.0,50,0.00,,,0.00,VWS V14.00,2013-12-02 04:23:00,
2013-12-01 23:28:00,34.0,17.3,28.82,NW,322,0.0,0.0,50,0.00,,,0.00,VWS V14.00,2013-12-02 04:28:00,
2013-12-01 23:33:00,34.0,17.3,28.82,NW,322,0.0,0.0,50,0.00,,,0.00,VWS V14.00,2013-12-02 04:33:00,
2013-12-01 23:38:00,34.0,17.3,28.82,NW,322,0.0,0.0,50,0.00,,,0.00,VWS V14.00,2013-12-02 04:38:00,
2013-12-01 23:43:00,33.8,17.6,28.82,NW,322,0.0,0.0,51,0.00,,,0.00,VWS V14.00,2013-12-02 04:43:00,
2013-12-01 23:48:00,33.8,17.6,28.82,NW,322,0.0,0.0,51,0.00,,,0.00,VWS V14.00,2013-12-02 04:48:00,
2013-12-01 23:53:00,33.6,17.4,28.82,NW,322,0.0,0.0,51,0.00,,,0.00,VWS V14.00,2013-12-02 04:53:00,
2013-12-01 23:58:00,33.6,17.4,28.82,NW,322,0.0,0.0,51,0.00,,,0.00,VWS V14.00,2013-12-02 04:58:00,